<?xml version='1.0' encoding='UTF-8'?>
<gpx version="1.1" creator="https://www.komoot.de" xmlns="http://www.topografix.com/GPX/1/1" xmlns:xsi="http://www.w3.org/2001/XMLSchema-instance" xsi:schemaLocation="http://www.topografix.com/GPX/1/1 http://www.topografix.com/GPX/1/1/gpx.xsd">
  <metadata>
    <name>Permanenter Wanderweg des DVV in Guldental</name>
    <author>
      <link href="https://www.komoot.de">
        <text>komoot</text>
        <type>text/html</type>
      </link>
    </author>
  </metadata>
  <trk>
    <name>Permanenter Wanderweg des DVV in Guldental</name>
    <trkseg>
      <trkpt lat="49.897325" lon="7.836582">
        <ele>196.368176</ele>
        <time>2020-06-23T05:52:48.840Z</time>
      </trkpt>
      <trkpt lat="49.897344" lon="7.836778">
        <ele>196.368176</ele>
        <time>2020-06-23T05:52:49.828Z</time>
      </trkpt>
      <trkpt lat="49.897259" lon="7.836721">
        <ele>196.368176</ele>
        <time>2020-06-23T05:52:55.835Z</time>
      </trkpt>
      <trkpt lat="49.897163" lon="7.836716">
        <ele>196.368176</ele>
        <time>2020-06-23T05:53:01.841Z</time>
      </trkpt>
      <trkpt lat="49.897095" lon="7.836814">
        <ele>196.368176</ele>
        <time>2020-06-23T05:53:08.812Z</time>
      </trkpt>
      <trkpt lat="49.896989" lon="7.836849">
        <ele>196.368176</ele>
        <time>2020-06-23T05:53:15.831Z</time>
      </trkpt>
      <trkpt lat="49.896899" lon="7.836857">
        <ele>196.368176</ele>
        <time>2020-06-23T05:53:21.833Z</time>
      </trkpt>
      <trkpt lat="49.896822" lon="7.836960">
        <ele>196.368176</ele>
        <time>2020-06-23T05:53:29.831Z</time>
      </trkpt>
      <trkpt lat="49.896756" lon="7.837067">
        <ele>196.368176</ele>
        <time>2020-06-23T05:53:35.826Z</time>
      </trkpt>
      <trkpt lat="49.896655" lon="7.837061">
        <ele>196.361737</ele>
        <time>2020-06-23T05:53:42.836Z</time>
      </trkpt>
      <trkpt lat="49.896548" lon="7.837095">
        <ele>196.252711</ele>
        <time>2020-06-23T05:53:49.825Z</time>
      </trkpt>
      <trkpt lat="49.896460" lon="7.837177">
        <ele>196.150256</ele>
        <time>2020-06-23T05:53:54.820Z</time>
      </trkpt>
      <trkpt lat="49.896373" lon="7.837231">
        <ele>196.056725</ele>
        <time>2020-06-23T05:53:59.829Z</time>
      </trkpt>
      <trkpt lat="49.896283" lon="7.837271">
        <ele>195.963274</ele>
        <time>2020-06-23T05:54:08.824Z</time>
      </trkpt>
      <trkpt lat="49.896191" lon="7.837348">
        <ele>195.858939</ele>
        <time>2020-06-23T05:54:16.828Z</time>
      </trkpt>
      <trkpt lat="49.896099" lon="7.837425">
        <ele>195.754604</ele>
        <time>2020-06-23T05:54:21.830Z</time>
      </trkpt>
      <trkpt lat="49.896008" lon="7.837493">
        <ele>195.653788</ele>
        <time>2020-06-23T05:54:26.833Z</time>
      </trkpt>
      <trkpt lat="49.895965" lon="7.837364">
        <ele>195.560388</ele>
        <time>2020-06-23T05:54:33.834Z</time>
      </trkpt>
      <trkpt lat="49.895993" lon="7.837225">
        <ele>195.466736</ele>
        <time>2020-06-23T05:54:39.819Z</time>
      </trkpt>
      <trkpt lat="49.895954" lon="7.837083">
        <ele>195.367472</ele>
        <time>2020-06-23T05:54:59.842Z</time>
      </trkpt>
      <trkpt lat="49.895922" lon="7.836921">
        <ele>195.258511</ele>
        <time>2020-06-23T05:55:08.817Z</time>
      </trkpt>
      <trkpt lat="49.895889" lon="7.836791">
        <ele>195.168659</ele>
        <time>2020-06-23T05:55:13.834Z</time>
      </trkpt>
      <trkpt lat="49.895890" lon="7.836651">
        <ele>195.078628</ele>
        <time>2020-06-23T05:55:20.829Z</time>
      </trkpt>
      <trkpt lat="49.895874" lon="7.836507">
        <ele>194.984662</ele>
        <time>2020-06-23T05:55:25.829Z</time>
      </trkpt>
      <trkpt lat="49.895857" lon="7.836369">
        <ele>194.894314</ele>
        <time>2020-06-23T05:55:32.829Z</time>
      </trkpt>
      <trkpt lat="49.895827" lon="7.836226">
        <ele>194.797605</ele>
        <time>2020-06-23T05:55:40.835Z</time>
      </trkpt>
      <trkpt lat="49.895799" lon="7.836080">
        <ele>194.699649</ele>
        <time>2020-06-23T05:55:46.820Z</time>
      </trkpt>
      <trkpt lat="49.895769" lon="7.835942">
        <ele>194.605992</ele>
        <time>2020-06-23T05:55:52.813Z</time>
      </trkpt>
      <trkpt lat="49.895750" lon="7.835792">
        <ele>194.893562</ele>
        <time>2020-06-23T05:56:00.820Z</time>
      </trkpt>
      <trkpt lat="49.895740" lon="7.835644">
        <ele>195.365814</ele>
        <time>2020-06-23T05:56:07.833Z</time>
      </trkpt>
      <trkpt lat="49.895717" lon="7.835503">
        <ele>195.827398</ele>
        <time>2020-06-23T05:56:12.829Z</time>
      </trkpt>
      <trkpt lat="49.895681" lon="7.835355">
        <ele>196.329443</ele>
        <time>2020-06-23T05:56:20.841Z</time>
      </trkpt>
      <trkpt lat="49.895668" lon="7.835210">
        <ele>196.794034</ele>
        <time>2020-06-23T05:56:28.834Z</time>
      </trkpt>
      <trkpt lat="49.895654" lon="7.835058">
        <ele>197.281310</ele>
        <time>2020-06-23T05:56:35.828Z</time>
      </trkpt>
      <trkpt lat="49.895637" lon="7.834912">
        <ele>197.752147</ele>
        <time>2020-06-23T05:56:42.829Z</time>
      </trkpt>
      <trkpt lat="49.895620" lon="7.834775">
        <ele>198.194908</ele>
        <time>2020-06-23T05:56:48.842Z</time>
      </trkpt>
      <trkpt lat="49.895588" lon="7.834626">
        <ele>198.693345</ele>
        <time>2020-06-23T05:56:56.830Z</time>
      </trkpt>
      <trkpt lat="49.895542" lon="7.834503">
        <ele>199.144697</ele>
        <time>2020-06-23T05:57:01.827Z</time>
      </trkpt>
      <trkpt lat="49.895501" lon="7.834378">
        <ele>199.589846</ele>
        <time>2020-06-23T05:57:06.827Z</time>
      </trkpt>
      <trkpt lat="49.895484" lon="7.834227">
        <ele>200.076308</ele>
        <time>2020-06-23T05:57:11.827Z</time>
      </trkpt>
      <trkpt lat="49.895524" lon="7.834088">
        <ele>200.559437</ele>
        <time>2020-06-23T05:57:33.850Z</time>
      </trkpt>
      <trkpt lat="49.895534" lon="7.833944">
        <ele>201.019069</ele>
        <time>2020-06-23T05:57:43.821Z</time>
      </trkpt>
      <trkpt lat="49.895632" lon="7.833915">
        <ele>201.510548</ele>
        <time>2020-06-23T05:57:55.828Z</time>
      </trkpt>
      <trkpt lat="49.895722" lon="7.833879">
        <ele>201.968406</ele>
        <time>2020-06-23T05:58:02.819Z</time>
      </trkpt>
      <trkpt lat="49.895840" lon="7.833842">
        <ele>202.561459</ele>
        <time>2020-06-23T05:58:09.815Z</time>
      </trkpt>
      <trkpt lat="49.895922" lon="7.833785">
        <ele>203.004074</ele>
        <time>2020-06-23T05:58:12.832Z</time>
      </trkpt>
      <trkpt lat="49.895977" lon="7.833662">
        <ele>203.447368</ele>
        <time>2020-06-23T05:58:20.822Z</time>
      </trkpt>
      <trkpt lat="49.896076" lon="7.833610">
        <ele>203.603359</ele>
        <time>2020-06-23T05:58:35.829Z</time>
      </trkpt>
      <trkpt lat="49.896179" lon="7.833603">
        <ele>203.757238</ele>
        <time>2020-06-23T05:58:45.835Z</time>
      </trkpt>
      <trkpt lat="49.896264" lon="7.833534">
        <ele>203.900402</ele>
        <time>2020-06-23T05:58:50.824Z</time>
      </trkpt>
      <trkpt lat="49.896352" lon="7.833435">
        <ele>204.062609</ele>
        <time>2020-06-23T05:58:55.828Z</time>
      </trkpt>
      <trkpt lat="49.896432" lon="7.833349">
        <ele>204.207846</ele>
        <time>2020-06-23T05:59:01.818Z</time>
      </trkpt>
      <trkpt lat="49.896524" lon="7.833283">
        <ele>204.359113</ele>
        <time>2020-06-23T05:59:11.827Z</time>
      </trkpt>
      <trkpt lat="49.896599" lon="7.833178">
        <ele>204.509851</ele>
        <time>2020-06-23T05:59:17.819Z</time>
      </trkpt>
      <trkpt lat="49.896678" lon="7.833071">
        <ele>204.666332</ele>
        <time>2020-06-23T05:59:41.835Z</time>
      </trkpt>
      <trkpt lat="49.896740" lon="7.832968">
        <ele>204.801867</ele>
        <time>2020-06-23T05:59:46.830Z</time>
      </trkpt>
      <trkpt lat="49.896701" lon="7.832807">
        <ele>204.967243</ele>
        <time>2020-06-23T05:59:54.833Z</time>
      </trkpt>
      <trkpt lat="49.896646" lon="7.832691">
        <ele>205.105725</ele>
        <time>2020-06-23T06:00:00.836Z</time>
      </trkpt>
      <trkpt lat="49.896595" lon="7.832564">
        <ele>205.249612</ele>
        <time>2020-06-23T06:00:06.831Z</time>
      </trkpt>
      <trkpt lat="49.896584" lon="7.832418">
        <ele>205.390940</ele>
        <time>2020-06-23T06:00:12.825Z</time>
      </trkpt>
      <trkpt lat="49.896545" lon="7.832292">
        <ele>205.525342</ele>
        <time>2020-06-23T06:00:19.830Z</time>
      </trkpt>
      <trkpt lat="49.896506" lon="7.832155">
        <ele>205.669349</ele>
        <time>2020-06-23T06:00:26.820Z</time>
      </trkpt>
      <trkpt lat="49.896466" lon="7.832021">
        <ele>205.811344</ele>
        <time>2020-06-23T06:00:32.816Z</time>
      </trkpt>
      <trkpt lat="49.896412" lon="7.831900">
        <ele>205.952871</ele>
        <time>2020-06-23T06:00:38.818Z</time>
      </trkpt>
      <trkpt lat="49.896365" lon="7.831777">
        <ele>206.090370</ele>
        <time>2020-06-23T06:00:43.823Z</time>
      </trkpt>
      <trkpt lat="49.896238" lon="7.831636">
        <ele>206.960339</ele>
        <time>2020-06-23T06:01:11.808Z</time>
      </trkpt>
      <trkpt lat="49.896157" lon="7.831544">
        <ele>207.574775</ele>
        <time>2020-06-23T06:01:21.821Z</time>
      </trkpt>
      <trkpt lat="49.896102" lon="7.831418">
        <ele>208.175009</ele>
        <time>2020-06-23T06:01:27.826Z</time>
      </trkpt>
      <trkpt lat="49.896034" lon="7.831318">
        <ele>208.748442</ele>
        <time>2020-06-23T06:01:35.829Z</time>
      </trkpt>
      <trkpt lat="49.895973" lon="7.831205">
        <ele>209.329859</ele>
        <time>2020-06-23T06:01:42.821Z</time>
      </trkpt>
      <trkpt lat="49.895887" lon="7.831126">
        <ele>209.941623</ele>
        <time>2020-06-23T06:01:48.825Z</time>
      </trkpt>
      <trkpt lat="49.895797" lon="7.831134">
        <ele>210.493504</ele>
        <time>2020-06-23T06:01:55.819Z</time>
      </trkpt>
      <trkpt lat="49.895717" lon="7.831233">
        <ele>211.119838</ele>
        <time>2020-06-23T06:02:01.833Z</time>
      </trkpt>
      <trkpt lat="49.895632" lon="7.831291">
        <ele>211.688259</ele>
        <time>2020-06-23T06:02:07.830Z</time>
      </trkpt>
      <trkpt lat="49.895554" lon="7.831369">
        <ele>212.256276</ele>
        <time>2020-06-23T06:02:16.826Z</time>
      </trkpt>
      <trkpt lat="49.895455" lon="7.831403">
        <ele>212.877008</ele>
        <time>2020-06-23T06:02:22.823Z</time>
      </trkpt>
      <trkpt lat="49.895353" lon="7.831435">
        <ele>213.514075</ele>
        <time>2020-06-23T06:02:28.818Z</time>
      </trkpt>
      <trkpt lat="49.895263" lon="7.831454">
        <ele>214.070126</ele>
        <time>2020-06-23T06:02:35.830Z</time>
      </trkpt>
      <trkpt lat="49.895176" lon="7.831388">
        <ele>214.662936</ele>
        <time>2020-06-23T06:02:44.824Z</time>
      </trkpt>
      <trkpt lat="49.895104" lon="7.831278">
        <ele>215.281386</ele>
        <time>2020-06-23T06:02:52.828Z</time>
      </trkpt>
      <trkpt lat="49.895038" lon="7.831162">
        <ele>215.891745</ele>
        <time>2020-06-23T06:02:59.827Z</time>
      </trkpt>
      <trkpt lat="49.894993" lon="7.831029">
        <ele>216.484206</ele>
        <time>2020-06-23T06:03:07.834Z</time>
      </trkpt>
      <trkpt lat="49.894948" lon="7.830903">
        <ele>217.052373</ele>
        <time>2020-06-23T06:03:14.831Z</time>
      </trkpt>
      <trkpt lat="49.894867" lon="7.830840">
        <ele>217.771760</ele>
        <time>2020-06-23T06:03:19.833Z</time>
      </trkpt>
      <trkpt lat="49.894774" lon="7.830797">
        <ele>218.570706</ele>
        <time>2020-06-23T06:03:28.830Z</time>
      </trkpt>
      <trkpt lat="49.894676" lon="7.830759">
        <ele>219.402368</ele>
        <time>2020-06-23T06:03:36.841Z</time>
      </trkpt>
      <trkpt lat="49.894589" lon="7.830706">
        <ele>220.171855</ele>
        <time>2020-06-23T06:03:43.830Z</time>
      </trkpt>
      <trkpt lat="49.894497" lon="7.830732">
        <ele>220.941776</ele>
        <time>2020-06-23T06:03:49.831Z</time>
      </trkpt>
      <trkpt lat="49.894410" lon="7.830781">
        <ele>221.703769</ele>
        <time>2020-06-23T06:03:55.835Z</time>
      </trkpt>
      <trkpt lat="49.894330" lon="7.830843">
        <ele>222.439965</ele>
        <time>2020-06-23T06:04:05.834Z</time>
      </trkpt>
      <trkpt lat="49.894243" lon="7.830890">
        <ele>223.198406</ele>
        <time>2020-06-23T06:04:12.829Z</time>
      </trkpt>
      <trkpt lat="49.894151" lon="7.830960">
        <ele>224.041974</ele>
        <time>2020-06-23T06:04:19.838Z</time>
      </trkpt>
      <trkpt lat="49.894061" lon="7.831013">
        <ele>224.834507</ele>
        <time>2020-06-23T06:04:26.831Z</time>
      </trkpt>
      <trkpt lat="49.893978" lon="7.831067">
        <ele>225.575470</ele>
        <time>2020-06-23T06:04:34.840Z</time>
      </trkpt>
      <trkpt lat="49.893897" lon="7.831132">
        <ele>226.326215</ele>
        <time>2020-06-23T06:04:41.841Z</time>
      </trkpt>
      <trkpt lat="49.893800" lon="7.831189">
        <ele>227.180160</ele>
        <time>2020-06-23T06:04:48.834Z</time>
      </trkpt>
      <trkpt lat="49.893712" lon="7.831244">
        <ele>227.961220</ele>
        <time>2020-06-23T06:04:55.839Z</time>
      </trkpt>
      <trkpt lat="49.893613" lon="7.831260">
        <ele>228.780729</ele>
        <time>2020-06-23T06:05:02.829Z</time>
      </trkpt>
      <trkpt lat="49.893524" lon="7.831303">
        <ele>229.548172</ele>
        <time>2020-06-23T06:05:08.830Z</time>
      </trkpt>
      <trkpt lat="49.893427" lon="7.831341">
        <ele>230.371849</ele>
        <time>2020-06-23T06:05:16.835Z</time>
      </trkpt>
      <trkpt lat="49.893325" lon="7.831359">
        <ele>231.217063</ele>
        <time>2020-06-23T06:05:24.837Z</time>
      </trkpt>
      <trkpt lat="49.893230" lon="7.831378">
        <ele>231.987889</ele>
        <time>2020-06-23T06:05:31.833Z</time>
      </trkpt>
      <trkpt lat="49.893131" lon="7.831391">
        <ele>232.589979</ele>
        <time>2020-06-23T06:05:39.841Z</time>
      </trkpt>
      <trkpt lat="49.893037" lon="7.831395">
        <ele>233.159840</ele>
        <time>2020-06-23T06:05:46.835Z</time>
      </trkpt>
      <trkpt lat="49.892943" lon="7.831405">
        <ele>233.730823</ele>
        <time>2020-06-23T06:05:53.829Z</time>
      </trkpt>
      <trkpt lat="49.892852" lon="7.831404">
        <ele>234.282303</ele>
        <time>2020-06-23T06:06:00.829Z</time>
      </trkpt>
      <trkpt lat="49.892754" lon="7.831389">
        <ele>234.879070</ele>
        <time>2020-06-23T06:06:08.828Z</time>
      </trkpt>
      <trkpt lat="49.892650" lon="7.831402">
        <ele>235.511358</ele>
        <time>2020-06-23T06:06:15.834Z</time>
      </trkpt>
      <trkpt lat="49.892547" lon="7.831410">
        <ele>236.136326</ele>
        <time>2020-06-23T06:06:22.829Z</time>
      </trkpt>
      <trkpt lat="49.892454" lon="7.831412">
        <ele>236.699967</ele>
        <time>2020-06-23T06:06:29.829Z</time>
      </trkpt>
      <trkpt lat="49.892358" lon="7.831406">
        <ele>237.282205</ele>
        <time>2020-06-23T06:06:37.828Z</time>
      </trkpt>
      <trkpt lat="49.892268" lon="7.831402">
        <ele>237.827835</ele>
        <time>2020-06-23T06:06:44.841Z</time>
      </trkpt>
      <trkpt lat="49.892174" lon="7.831419">
        <ele>238.401335</ele>
        <time>2020-06-23T06:06:50.834Z</time>
      </trkpt>
      <trkpt lat="49.892081" lon="7.831427">
        <ele>238.965786</ele>
        <time>2020-06-23T06:06:57.836Z</time>
      </trkpt>
      <trkpt lat="49.891993" lon="7.831499">
        <ele>239.568619</ele>
        <time>2020-06-23T06:07:16.833Z</time>
      </trkpt>
      <trkpt lat="49.891934" lon="7.831613">
        <ele>240.139515</ele>
        <time>2020-06-23T06:07:25.827Z</time>
      </trkpt>
      <trkpt lat="49.891878" lon="7.831740">
        <ele>240.740351</ele>
        <time>2020-06-23T06:07:30.833Z</time>
      </trkpt>
      <trkpt lat="49.891823" lon="7.831860">
        <ele>241.315309</ele>
        <time>2020-06-23T06:07:36.832Z</time>
      </trkpt>
      <trkpt lat="49.891755" lon="7.831973">
        <ele>241.918996</ele>
        <time>2020-06-23T06:07:42.824Z</time>
      </trkpt>
      <trkpt lat="49.891686" lon="7.832079">
        <ele>242.507303</ele>
        <time>2020-06-23T06:07:49.835Z</time>
      </trkpt>
      <trkpt lat="49.891628" lon="7.832193">
        <ele>242.865353</ele>
        <time>2020-06-23T06:07:56.837Z</time>
      </trkpt>
      <trkpt lat="49.891566" lon="7.832311">
        <ele>242.933826</ele>
        <time>2020-06-23T06:08:04.826Z</time>
      </trkpt>
      <trkpt lat="49.891514" lon="7.832426">
        <ele>242.997006</ele>
        <time>2020-06-23T06:08:11.829Z</time>
      </trkpt>
      <trkpt lat="49.891445" lon="7.832524">
        <ele>243.062288</ele>
        <time>2020-06-23T06:08:17.837Z</time>
      </trkpt>
      <trkpt lat="49.891381" lon="7.832624">
        <ele>243.125675</ele>
        <time>2020-06-23T06:08:23.835Z</time>
      </trkpt>
      <trkpt lat="49.891311" lon="7.832742">
        <ele>243.197807</ele>
        <time>2020-06-23T06:08:30.840Z</time>
      </trkpt>
      <trkpt lat="49.891242" lon="7.832837">
        <ele>243.262186</ele>
        <time>2020-06-23T06:08:36.825Z</time>
      </trkpt>
      <trkpt lat="49.891177" lon="7.832943">
        <ele>243.327994</ele>
        <time>2020-06-23T06:08:43.834Z</time>
      </trkpt>
      <trkpt lat="49.891109" lon="7.833055">
        <ele>243.397200</ele>
        <time>2020-06-23T06:08:50.827Z</time>
      </trkpt>
      <trkpt lat="49.891034" lon="7.833170">
        <ele>243.470787</ele>
        <time>2020-06-23T06:08:57.826Z</time>
      </trkpt>
      <trkpt lat="49.890957" lon="7.833286">
        <ele>243.545685</ele>
        <time>2020-06-23T06:09:04.835Z</time>
      </trkpt>
      <trkpt lat="49.890883" lon="7.833383">
        <ele>243.613293</ele>
        <time>2020-06-23T06:09:10.836Z</time>
      </trkpt>
      <trkpt lat="49.890810" lon="7.833477">
        <ele>243.679499</ele>
        <time>2020-06-23T06:09:16.840Z</time>
      </trkpt>
      <trkpt lat="49.890736" lon="7.833576">
        <ele>243.747690</ele>
        <time>2020-06-23T06:09:23.831Z</time>
      </trkpt>
      <trkpt lat="49.890663" lon="7.833679">
        <ele>243.816550</ele>
        <time>2020-06-23T06:09:30.836Z</time>
      </trkpt>
      <trkpt lat="49.890578" lon="7.833773">
        <ele>243.889400</ele>
        <time>2020-06-23T06:09:37.841Z</time>
      </trkpt>
      <trkpt lat="49.890492" lon="7.833854">
        <ele>243.959615</ele>
        <time>2020-06-23T06:09:44.834Z</time>
      </trkpt>
      <trkpt lat="49.890406" lon="7.833920">
        <ele>244.026581</ele>
        <time>2020-06-23T06:09:51.835Z</time>
      </trkpt>
      <trkpt lat="49.890315" lon="7.833996">
        <ele>244.106599</ele>
        <time>2020-06-23T06:09:58.843Z</time>
      </trkpt>
      <trkpt lat="49.890227" lon="7.834054">
        <ele>244.276547</ele>
        <time>2020-06-23T06:10:04.827Z</time>
      </trkpt>
      <trkpt lat="49.890149" lon="7.834143">
        <ele>244.448633</ele>
        <time>2020-06-23T06:10:10.831Z</time>
      </trkpt>
      <trkpt lat="49.890077" lon="7.834236">
        <ele>244.615141</ele>
        <time>2020-06-23T06:10:16.832Z</time>
      </trkpt>
      <trkpt lat="49.890011" lon="7.834338">
        <ele>244.780701</ele>
        <time>2020-06-23T06:10:23.831Z</time>
      </trkpt>
      <trkpt lat="49.889936" lon="7.834444">
        <ele>244.961010</ele>
        <time>2020-06-23T06:10:30.838Z</time>
      </trkpt>
      <trkpt lat="49.889862" lon="7.834549">
        <ele>245.139234</ele>
        <time>2020-06-23T06:10:37.828Z</time>
      </trkpt>
      <trkpt lat="49.889795" lon="7.834661">
        <ele>245.314269</ele>
        <time>2020-06-23T06:10:44.810Z</time>
      </trkpt>
      <trkpt lat="49.889706" lon="7.834728">
        <ele>245.490102</ele>
        <time>2020-06-23T06:11:02.834Z</time>
      </trkpt>
      <trkpt lat="49.889649" lon="7.834847">
        <ele>245.659926</ele>
        <time>2020-06-23T06:11:09.830Z</time>
      </trkpt>
      <trkpt lat="49.889595" lon="7.834983">
        <ele>245.842883</ele>
        <time>2020-06-23T06:11:16.836Z</time>
      </trkpt>
      <trkpt lat="49.889556" lon="7.835114">
        <ele>246.008154</ele>
        <time>2020-06-23T06:11:22.819Z</time>
      </trkpt>
      <trkpt lat="49.889495" lon="7.835224">
        <ele>246.174372</ele>
        <time>2020-06-23T06:11:29.834Z</time>
      </trkpt>
      <trkpt lat="49.889400" lon="7.835252">
        <ele>246.346263</ele>
        <time>2020-06-23T06:11:37.826Z</time>
      </trkpt>
      <trkpt lat="49.889300" lon="7.835208">
        <ele>246.531029</ele>
        <time>2020-06-23T06:11:44.823Z</time>
      </trkpt>
      <trkpt lat="49.889218" lon="7.835128">
        <ele>246.703196</ele>
        <time>2020-06-23T06:11:51.833Z</time>
      </trkpt>
      <trkpt lat="49.889123" lon="7.835096">
        <ele>246.876000</ele>
        <time>2020-06-23T06:11:59.824Z</time>
      </trkpt>
      <trkpt lat="49.889035" lon="7.835047">
        <ele>247.042191</ele>
        <time>2020-06-23T06:12:06.830Z</time>
      </trkpt>
      <trkpt lat="49.888939" lon="7.835089">
        <ele>247.219491</ele>
        <time>2020-06-23T06:12:13.834Z</time>
      </trkpt>
      <trkpt lat="49.888865" lon="7.835171">
        <ele>247.194654</ele>
        <time>2020-06-23T06:12:19.830Z</time>
      </trkpt>
      <trkpt lat="49.888792" lon="7.835253">
        <ele>247.023761</ele>
        <time>2020-06-23T06:12:26.833Z</time>
      </trkpt>
      <trkpt lat="49.888724" lon="7.835361">
        <ele>246.839252</ele>
        <time>2020-06-23T06:12:33.842Z</time>
      </trkpt>
      <trkpt lat="49.888654" lon="7.835455">
        <ele>246.663711</ele>
        <time>2020-06-23T06:12:39.823Z</time>
      </trkpt>
      <trkpt lat="49.888611" lon="7.835580">
        <ele>246.490574</ele>
        <time>2020-06-23T06:12:55.842Z</time>
      </trkpt>
      <trkpt lat="49.888612" lon="7.835728">
        <ele>246.309731</ele>
        <time>2020-06-23T06:13:04.834Z</time>
      </trkpt>
      <trkpt lat="49.888581" lon="7.835866">
        <ele>246.131161</ele>
        <time>2020-06-23T06:13:10.831Z</time>
      </trkpt>
      <trkpt lat="49.888523" lon="7.835990">
        <ele>245.943934</ele>
        <time>2020-06-23T06:13:15.830Z</time>
      </trkpt>
      <trkpt lat="49.888461" lon="7.836098">
        <ele>245.767190</ele>
        <time>2020-06-23T06:13:22.830Z</time>
      </trkpt>
      <trkpt lat="49.888381" lon="7.836166">
        <ele>245.594212</ele>
        <time>2020-06-23T06:13:29.830Z</time>
      </trkpt>
      <trkpt lat="49.888302" lon="7.836249">
        <ele>245.413295</ele>
        <time>2020-06-23T06:13:36.836Z</time>
      </trkpt>
      <trkpt lat="49.888222" lon="7.836326">
        <ele>245.234775</ele>
        <time>2020-06-23T06:13:42.829Z</time>
      </trkpt>
      <trkpt lat="49.888147" lon="7.836404">
        <ele>245.063562</ele>
        <time>2020-06-23T06:13:48.832Z</time>
      </trkpt>
      <trkpt lat="49.888076" lon="7.836491">
        <ele>244.892009</ele>
        <time>2020-06-23T06:13:54.826Z</time>
      </trkpt>
      <trkpt lat="49.888015" lon="7.836594">
        <ele>244.721067</ele>
        <time>2020-06-23T06:13:59.825Z</time>
      </trkpt>
      <trkpt lat="49.887979" lon="7.836728">
        <ele>244.543673</ele>
        <time>2020-06-23T06:14:06.833Z</time>
      </trkpt>
      <trkpt lat="49.887933" lon="7.836856">
        <ele>244.364590</ele>
        <time>2020-06-23T06:14:14.831Z</time>
      </trkpt>
      <trkpt lat="49.887890" lon="7.837008">
        <ele>244.161752</ele>
        <time>2020-06-23T06:14:20.831Z</time>
      </trkpt>
      <trkpt lat="49.887841" lon="7.837131">
        <ele>243.985054</ele>
        <time>2020-06-23T06:14:26.840Z</time>
      </trkpt>
      <trkpt lat="49.887758" lon="7.837220">
        <ele>244.078673</ele>
        <time>2020-06-23T06:14:34.827Z</time>
      </trkpt>
      <trkpt lat="49.887662" lon="7.837260">
        <ele>244.513964</ele>
        <time>2020-06-23T06:14:41.840Z</time>
      </trkpt>
      <trkpt lat="49.887570" lon="7.837259">
        <ele>244.916863</ele>
        <time>2020-06-23T06:14:47.814Z</time>
      </trkpt>
      <trkpt lat="49.887475" lon="7.837299">
        <ele>245.347927</ele>
        <time>2020-06-23T06:14:53.839Z</time>
      </trkpt>
      <trkpt lat="49.887393" lon="7.837367">
        <ele>245.755065</ele>
        <time>2020-06-23T06:15:00.835Z</time>
      </trkpt>
      <trkpt lat="49.887342" lon="7.837496">
        <ele>246.182100</ele>
        <time>2020-06-23T06:15:07.833Z</time>
      </trkpt>
      <trkpt lat="49.887321" lon="7.837634">
        <ele>246.582181</ele>
        <time>2020-06-23T06:15:14.832Z</time>
      </trkpt>
      <trkpt lat="49.887275" lon="7.837770">
        <ele>247.015569</ele>
        <time>2020-06-23T06:15:21.833Z</time>
      </trkpt>
      <trkpt lat="49.887230" lon="7.837896">
        <ele>247.422044</ele>
        <time>2020-06-23T06:15:28.830Z</time>
      </trkpt>
      <trkpt lat="49.887171" lon="7.838021">
        <ele>247.859248</ele>
        <time>2020-06-23T06:15:35.821Z</time>
      </trkpt>
      <trkpt lat="49.887103" lon="7.838124">
        <ele>248.275344</ele>
        <time>2020-06-23T06:15:42.828Z</time>
      </trkpt>
      <trkpt lat="49.887035" lon="7.838243">
        <ele>248.724134</ele>
        <time>2020-06-23T06:15:48.828Z</time>
      </trkpt>
      <trkpt lat="49.886958" lon="7.838338">
        <ele>249.154892</ele>
        <time>2020-06-23T06:15:55.834Z</time>
      </trkpt>
      <trkpt lat="49.886894" lon="7.838436">
        <ele>249.548605</ele>
        <time>2020-06-23T06:16:01.837Z</time>
      </trkpt>
      <trkpt lat="49.886826" lon="7.838537">
        <ele>249.960780</ele>
        <time>2020-06-23T06:16:07.842Z</time>
      </trkpt>
      <trkpt lat="49.886753" lon="7.838628">
        <ele>250.370809</ele>
        <time>2020-06-23T06:16:14.830Z</time>
      </trkpt>
      <trkpt lat="49.886670" lon="7.838687">
        <ele>250.770593</ele>
        <time>2020-06-23T06:16:21.827Z</time>
      </trkpt>
      <trkpt lat="49.886574" lon="7.838713">
        <ele>251.197352</ele>
        <time>2020-06-23T06:16:27.824Z</time>
      </trkpt>
      <trkpt lat="49.886475" lon="7.838714">
        <ele>251.630905</ele>
        <time>2020-06-23T06:16:34.837Z</time>
      </trkpt>
      <trkpt lat="49.886382" lon="7.838722">
        <ele>251.722002</ele>
        <time>2020-06-23T06:16:41.829Z</time>
      </trkpt>
      <trkpt lat="49.886288" lon="7.838748">
        <ele>251.670875</ele>
        <time>2020-06-23T06:16:48.840Z</time>
      </trkpt>
      <trkpt lat="49.886193" lon="7.838787">
        <ele>251.618257</ele>
        <time>2020-06-23T06:16:56.834Z</time>
      </trkpt>
      <trkpt lat="49.886179" lon="7.838938">
        <ele>251.565625</ele>
        <time>2020-06-23T06:17:04.830Z</time>
      </trkpt>
      <trkpt lat="49.886171" lon="7.839084">
        <ele>251.515073</ele>
        <time>2020-06-23T06:17:12.821Z</time>
      </trkpt>
      <trkpt lat="49.886157" lon="7.839227">
        <ele>251.465171</ele>
        <time>2020-06-23T06:17:17.828Z</time>
      </trkpt>
      <trkpt lat="49.886152" lon="7.839374">
        <ele>251.414385</ele>
        <time>2020-06-23T06:17:24.839Z</time>
      </trkpt>
      <trkpt lat="49.886163" lon="7.839532">
        <ele>251.359557</ele>
        <time>2020-06-23T06:17:31.835Z</time>
      </trkpt>
      <trkpt lat="49.886172" lon="7.839675">
        <ele>251.309987</ele>
        <time>2020-06-23T06:17:38.829Z</time>
      </trkpt>
      <trkpt lat="49.886173" lon="7.839830">
        <ele>251.256509</ele>
        <time>2020-06-23T06:17:45.825Z</time>
      </trkpt>
      <trkpt lat="49.886180" lon="7.839970">
        <ele>251.208063</ele>
        <time>2020-06-23T06:17:52.835Z</time>
      </trkpt>
      <trkpt lat="49.886208" lon="7.840118">
        <ele>251.154847</ele>
        <time>2020-06-23T06:17:58.832Z</time>
      </trkpt>
      <trkpt lat="49.886250" lon="7.840262">
        <ele>251.100314</ele>
        <time>2020-06-23T06:18:05.822Z</time>
      </trkpt>
      <trkpt lat="49.886296" lon="7.840398">
        <ele>251.047321</ele>
        <time>2020-06-23T06:18:13.830Z</time>
      </trkpt>
      <trkpt lat="49.886331" lon="7.840542">
        <ele>250.994224</ele>
        <time>2020-06-23T06:18:20.806Z</time>
      </trkpt>
      <trkpt lat="49.886372" lon="7.840731">
        <ele>250.925422</ele>
        <time>2020-06-23T06:18:44.841Z</time>
      </trkpt>
      <trkpt lat="49.886385" lon="7.840877">
        <ele>250.874573</ele>
        <time>2020-06-23T06:18:53.826Z</time>
      </trkpt>
      <trkpt lat="49.886357" lon="7.841011">
        <ele>250.825972</ele>
        <time>2020-06-23T06:18:59.827Z</time>
      </trkpt>
      <trkpt lat="49.886274" lon="7.841097">
        <ele>250.667449</ele>
        <time>2020-06-23T06:19:06.846Z</time>
      </trkpt>
      <trkpt lat="49.886187" lon="7.841141">
        <ele>250.371825</ele>
        <time>2020-06-23T06:19:12.826Z</time>
      </trkpt>
      <trkpt lat="49.886098" lon="7.841174">
        <ele>250.076194</ele>
        <time>2020-06-23T06:19:18.836Z</time>
      </trkpt>
      <trkpt lat="49.885999" lon="7.841169">
        <ele>249.756177</ele>
        <time>2020-06-23T06:19:25.833Z</time>
      </trkpt>
      <trkpt lat="49.885910" lon="7.841147">
        <ele>249.465013</ele>
        <time>2020-06-23T06:19:32.830Z</time>
      </trkpt>
      <trkpt lat="49.885811" lon="7.841113">
        <ele>249.137428</ele>
        <time>2020-06-23T06:19:40.812Z</time>
      </trkpt>
      <trkpt lat="49.885718" lon="7.841176">
        <ele>248.809592</ele>
        <time>2020-06-23T06:19:47.833Z</time>
      </trkpt>
      <trkpt lat="49.885681" lon="7.841313">
        <ele>248.500368</ele>
        <time>2020-06-23T06:19:53.824Z</time>
      </trkpt>
      <trkpt lat="49.885633" lon="7.841451">
        <ele>248.173915</ele>
        <time>2020-06-23T06:20:00.841Z</time>
      </trkpt>
      <trkpt lat="49.885595" lon="7.841581">
        <ele>247.876755</ele>
        <time>2020-06-23T06:20:07.835Z</time>
      </trkpt>
      <trkpt lat="49.885540" lon="7.841721">
        <ele>247.535425</ele>
        <time>2020-06-23T06:20:14.831Z</time>
      </trkpt>
      <trkpt lat="49.885484" lon="7.841837">
        <ele>247.233693</ele>
        <time>2020-06-23T06:20:20.834Z</time>
      </trkpt>
      <trkpt lat="49.885436" lon="7.841961">
        <ele>246.932566</ele>
        <time>2020-06-23T06:20:26.834Z</time>
      </trkpt>
      <trkpt lat="49.885396" lon="7.842088">
        <ele>246.638301</ele>
        <time>2020-06-23T06:20:33.831Z</time>
      </trkpt>
      <trkpt lat="49.885354" lon="7.842215">
        <ele>246.341141</ele>
        <time>2020-06-23T06:20:39.828Z</time>
      </trkpt>
      <trkpt lat="49.885318" lon="7.842358">
        <ele>246.021549</ele>
        <time>2020-06-23T06:20:46.840Z</time>
      </trkpt>
      <trkpt lat="49.885292" lon="7.842510">
        <ele>245.694176</ele>
        <time>2020-06-23T06:20:52.832Z</time>
      </trkpt>
      <trkpt lat="49.885259" lon="7.842656">
        <ele>245.372096</ele>
        <time>2020-06-23T06:20:57.838Z</time>
      </trkpt>
      <trkpt lat="49.885232" lon="7.842807">
        <ele>245.045886</ele>
        <time>2020-06-23T06:21:03.831Z</time>
      </trkpt>
      <trkpt lat="49.885198" lon="7.842960">
        <ele>244.680012</ele>
        <time>2020-06-23T06:21:11.828Z</time>
      </trkpt>
      <trkpt lat="49.885172" lon="7.843096">
        <ele>244.353418</ele>
        <time>2020-06-23T06:21:17.834Z</time>
      </trkpt>
      <trkpt lat="49.885137" lon="7.843249">
        <ele>243.979635</ele>
        <time>2020-06-23T06:21:24.831Z</time>
      </trkpt>
      <trkpt lat="49.885122" lon="7.843402">
        <ele>243.623340</ele>
        <time>2020-06-23T06:21:31.837Z</time>
      </trkpt>
      <trkpt lat="49.885102" lon="7.843548">
        <ele>243.279701</ele>
        <time>2020-06-23T06:21:37.835Z</time>
      </trkpt>
      <trkpt lat="49.885070" lon="7.843690">
        <ele>242.933366</ele>
        <time>2020-06-23T06:21:43.836Z</time>
      </trkpt>
      <trkpt lat="49.885161" lon="7.843767">
        <ele>242.563029</ele>
        <time>2020-06-23T06:21:51.827Z</time>
      </trkpt>
      <trkpt lat="49.885251" lon="7.843704">
        <ele>242.210254</ele>
        <time>2020-06-23T06:21:56.846Z</time>
      </trkpt>
      <trkpt lat="49.885341" lon="7.843662">
        <ele>241.874452</ele>
        <time>2020-06-23T06:22:04.834Z</time>
      </trkpt>
      <trkpt lat="49.885439" lon="7.843593">
        <ele>241.489940</ele>
        <time>2020-06-23T06:22:12.834Z</time>
      </trkpt>
      <trkpt lat="49.885525" lon="7.843508">
        <ele>241.125634</ele>
        <time>2020-06-23T06:22:18.837Z</time>
      </trkpt>
      <trkpt lat="49.885581" lon="7.843389">
        <ele>240.786380</ele>
        <time>2020-06-23T06:22:25.821Z</time>
      </trkpt>
      <trkpt lat="49.885596" lon="7.843251">
        <ele>240.464186</ele>
        <time>2020-06-23T06:22:31.827Z</time>
      </trkpt>
      <trkpt lat="49.885600" lon="7.843109">
        <ele>240.136960</ele>
        <time>2020-06-23T06:22:37.834Z</time>
      </trkpt>
      <trkpt lat="49.885613" lon="7.842963">
        <ele>239.797643</ele>
        <time>2020-06-23T06:22:44.828Z</time>
      </trkpt>
      <trkpt lat="49.885637" lon="7.842792">
        <ele>239.394734</ele>
        <time>2020-06-23T06:23:08.823Z</time>
      </trkpt>
      <trkpt lat="49.885684" lon="7.842663">
        <ele>239.053556</ele>
        <time>2020-06-23T06:23:17.817Z</time>
      </trkpt>
      <trkpt lat="49.885746" lon="7.842535">
        <ele>238.684891</ele>
        <time>2020-06-23T06:23:23.838Z</time>
      </trkpt>
      <trkpt lat="49.885808" lon="7.842421">
        <ele>238.118250</ele>
        <time>2020-06-23T06:23:29.827Z</time>
      </trkpt>
      <trkpt lat="49.885884" lon="7.842311">
        <ele>237.360039</ele>
        <time>2020-06-23T06:23:35.834Z</time>
      </trkpt>
      <trkpt lat="49.885973" lon="7.842217">
        <ele>236.574585</ele>
        <time>2020-06-23T06:23:41.834Z</time>
      </trkpt>
      <trkpt lat="49.886055" lon="7.842118">
        <ele>235.816600</ele>
        <time>2020-06-23T06:23:47.832Z</time>
      </trkpt>
      <trkpt lat="49.886134" lon="7.842032">
        <ele>235.112555</ele>
        <time>2020-06-23T06:23:55.837Z</time>
      </trkpt>
      <trkpt lat="49.886214" lon="7.841962">
        <ele>234.442492</ele>
        <time>2020-06-23T06:24:02.834Z</time>
      </trkpt>
      <trkpt lat="49.886311" lon="7.841907">
        <ele>233.689014</ele>
        <time>2020-06-23T06:24:09.833Z</time>
      </trkpt>
      <trkpt lat="49.886408" lon="7.841856">
        <ele>232.941780</ele>
        <time>2020-06-23T06:24:15.836Z</time>
      </trkpt>
      <trkpt lat="49.886501" lon="7.841799">
        <ele>232.212246</ele>
        <time>2020-06-23T06:24:23.831Z</time>
      </trkpt>
      <trkpt lat="49.886590" lon="7.841771">
        <ele>231.549681</ele>
        <time>2020-06-23T06:24:31.833Z</time>
      </trkpt>
      <trkpt lat="49.886690" lon="7.841770">
        <ele>230.820049</ele>
        <time>2020-06-23T06:24:38.824Z</time>
      </trkpt>
      <trkpt lat="49.886795" lon="7.841774">
        <ele>230.053721</ele>
        <time>2020-06-23T06:24:44.838Z</time>
      </trkpt>
      <trkpt lat="49.886895" lon="7.841771">
        <ele>229.323968</ele>
        <time>2020-06-23T06:24:50.836Z</time>
      </trkpt>
      <trkpt lat="49.886994" lon="7.841742">
        <ele>228.588895</ele>
        <time>2020-06-23T06:24:57.838Z</time>
      </trkpt>
      <trkpt lat="49.887082" lon="7.841677">
        <ele>227.877833</ele>
        <time>2020-06-23T06:25:04.824Z</time>
      </trkpt>
      <trkpt lat="49.887167" lon="7.841606">
        <ele>227.173550</ele>
        <time>2020-06-23T06:25:11.830Z</time>
      </trkpt>
      <trkpt lat="49.887235" lon="7.841498">
        <ele>226.463685</ele>
        <time>2020-06-23T06:25:17.826Z</time>
      </trkpt>
      <trkpt lat="49.887297" lon="7.841376">
        <ele>225.733246</ele>
        <time>2020-06-23T06:25:23.832Z</time>
      </trkpt>
      <trkpt lat="49.887356" lon="7.841268">
        <ele>225.053086</ele>
        <time>2020-06-23T06:25:30.823Z</time>
      </trkpt>
      <trkpt lat="49.887396" lon="7.841128">
        <ele>224.304480</ele>
        <time>2020-06-23T06:25:37.823Z</time>
      </trkpt>
      <trkpt lat="49.887437" lon="7.840985">
        <ele>223.539394</ele>
        <time>2020-06-23T06:25:43.837Z</time>
      </trkpt>
      <trkpt lat="49.887471" lon="7.840854">
        <ele>222.849049</ele>
        <time>2020-06-23T06:25:49.818Z</time>
      </trkpt>
      <trkpt lat="49.887496" lon="7.840720">
        <ele>222.167135</ele>
        <time>2020-06-23T06:25:56.836Z</time>
      </trkpt>
      <trkpt lat="49.887543" lon="7.840601">
        <ele>221.484856</ele>
        <time>2020-06-23T06:26:06.814Z</time>
      </trkpt>
      <trkpt lat="49.887614" lon="7.840497">
        <ele>220.744189</ele>
        <time>2020-06-23T06:26:27.822Z</time>
      </trkpt>
      <trkpt lat="49.887675" lon="7.840385">
        <ele>220.027323</ele>
        <time>2020-06-23T06:26:35.822Z</time>
      </trkpt>
      <trkpt lat="49.887744" lon="7.840277">
        <ele>219.283863</ele>
        <time>2020-06-23T06:26:41.828Z</time>
      </trkpt>
      <trkpt lat="49.887817" lon="7.840178">
        <ele>218.548396</ele>
        <time>2020-06-23T06:26:47.838Z</time>
      </trkpt>
      <trkpt lat="49.887905" lon="7.840085">
        <ele>217.740688</ele>
        <time>2020-06-23T06:26:54.822Z</time>
      </trkpt>
      <trkpt lat="49.887996" lon="7.840024">
        <ele>216.988654</ele>
        <time>2020-06-23T06:26:59.834Z</time>
      </trkpt>
      <trkpt lat="49.888079" lon="7.839960">
        <ele>216.285524</ele>
        <time>2020-06-23T06:27:05.838Z</time>
      </trkpt>
      <trkpt lat="49.888158" lon="7.839876">
        <ele>215.559014</ele>
        <time>2020-06-23T06:27:12.834Z</time>
      </trkpt>
      <trkpt lat="49.888260" lon="7.839819">
        <ele>214.736532</ele>
        <time>2020-06-23T06:27:18.825Z</time>
      </trkpt>
      <trkpt lat="49.888346" lon="7.839757">
        <ele>214.017120</ele>
        <time>2020-06-23T06:27:24.825Z</time>
      </trkpt>
      <trkpt lat="49.888429" lon="7.839681">
        <ele>213.286004</ele>
        <time>2020-06-23T06:27:31.827Z</time>
      </trkpt>
      <trkpt lat="49.888516" lon="7.839600">
        <ele>212.516312</ele>
        <time>2020-06-23T06:27:38.834Z</time>
      </trkpt>
      <trkpt lat="49.888609" lon="7.839533">
        <ele>211.726389</ele>
        <time>2020-06-23T06:27:44.823Z</time>
      </trkpt>
      <trkpt lat="49.888706" lon="7.839517">
        <ele>210.800803</ele>
        <time>2020-06-23T06:27:50.829Z</time>
      </trkpt>
      <trkpt lat="49.888803" lon="7.839503">
        <ele>209.876429</ele>
        <time>2020-06-23T06:27:57.824Z</time>
      </trkpt>
      <trkpt lat="49.888904" lon="7.839469">
        <ele>208.895789</ele>
        <time>2020-06-23T06:28:04.836Z</time>
      </trkpt>
      <trkpt lat="49.888996" lon="7.839449">
        <ele>208.014309</ele>
        <time>2020-06-23T06:28:11.836Z</time>
      </trkpt>
      <trkpt lat="49.889038" lon="7.839577">
        <ele>207.136169</ele>
        <time>2020-06-23T06:28:18.839Z</time>
      </trkpt>
      <trkpt lat="49.888984" lon="7.839708">
        <ele>206.185438</ele>
        <time>2020-06-23T06:28:24.823Z</time>
      </trkpt>
      <trkpt lat="49.888926" lon="7.839818">
        <ele>205.316482</ele>
        <time>2020-06-23T06:28:29.831Z</time>
      </trkpt>
      <trkpt lat="49.888876" lon="7.839946">
        <ele>204.401387</ele>
        <time>2020-06-23T06:28:36.834Z</time>
      </trkpt>
      <trkpt lat="49.888848" lon="7.840093">
        <ele>203.464280</ele>
        <time>2020-06-23T06:28:42.834Z</time>
      </trkpt>
      <trkpt lat="49.888795" lon="7.840222">
        <ele>202.528959</ele>
        <time>2020-06-23T06:28:48.831Z</time>
      </trkpt>
      <trkpt lat="49.888759" lon="7.840350">
        <ele>201.675144</ele>
        <time>2020-06-23T06:28:54.830Z</time>
      </trkpt>
      <trkpt lat="49.888716" lon="7.840495">
        <ele>200.699319</ele>
        <time>2020-06-23T06:29:01.831Z</time>
      </trkpt>
      <trkpt lat="49.888799" lon="7.840575">
        <ele>199.772259</ele>
        <time>2020-06-23T06:29:09.836Z</time>
      </trkpt>
      <trkpt lat="49.888884" lon="7.840630">
        <ele>198.898442</ele>
        <time>2020-06-23T06:29:14.829Z</time>
      </trkpt>
      <trkpt lat="49.888954" lon="7.840732">
        <ele>197.987400</ele>
        <time>2020-06-23T06:29:21.831Z</time>
      </trkpt>
      <trkpt lat="49.889022" lon="7.840827">
        <ele>197.119294</ele>
        <time>2020-06-23T06:29:27.833Z</time>
      </trkpt>
      <trkpt lat="49.889105" lon="7.840917">
        <ele>196.158582</ele>
        <time>2020-06-23T06:29:35.843Z</time>
      </trkpt>
      <trkpt lat="49.889184" lon="7.841003">
        <ele>195.242987</ele>
        <time>2020-06-23T06:29:44.833Z</time>
      </trkpt>
      <trkpt lat="49.889267" lon="7.841086">
        <ele>194.616080</ele>
        <time>2020-06-23T06:29:52.825Z</time>
      </trkpt>
      <trkpt lat="49.889340" lon="7.841189">
        <ele>194.381491</ele>
        <time>2020-06-23T06:30:00.828Z</time>
      </trkpt>
      <trkpt lat="49.889414" lon="7.841284">
        <ele>194.153138</ele>
        <time>2020-06-23T06:30:08.832Z</time>
      </trkpt>
      <trkpt lat="49.889487" lon="7.841388">
        <ele>193.917516</ele>
        <time>2020-06-23T06:30:18.832Z</time>
      </trkpt>
      <trkpt lat="49.889584" lon="7.841388">
        <ele>193.686860</ele>
        <time>2020-06-23T06:30:25.824Z</time>
      </trkpt>
      <trkpt lat="49.889616" lon="7.841242">
        <ele>193.450600</ele>
        <time>2020-06-23T06:30:32.840Z</time>
      </trkpt>
      <trkpt lat="49.889749" lon="7.840897">
        <ele>192.834670</ele>
        <time>2020-06-23T06:31:08.837Z</time>
      </trkpt>
      <trkpt lat="49.889766" lon="7.840759">
        <ele>192.619426</ele>
        <time>2020-06-23T06:31:17.833Z</time>
      </trkpt>
      <trkpt lat="49.889823" lon="7.840624">
        <ele>192.372151</ele>
        <time>2020-06-23T06:31:25.836Z</time>
      </trkpt>
      <trkpt lat="49.889862" lon="7.840480">
        <ele>192.132845</ele>
        <time>2020-06-23T06:31:33.838Z</time>
      </trkpt>
      <trkpt lat="49.889901" lon="7.840335">
        <ele>191.892127</ele>
        <time>2020-06-23T06:31:39.805Z</time>
      </trkpt>
      <trkpt lat="49.889928" lon="7.840181">
        <ele>191.647622</ele>
        <time>2020-06-23T06:31:47.831Z</time>
      </trkpt>
      <trkpt lat="49.889991" lon="7.840062">
        <ele>191.411661</ele>
        <time>2020-06-23T06:31:55.832Z</time>
      </trkpt>
      <trkpt lat="49.890089" lon="7.840008">
        <ele>191.164379</ele>
        <time>2020-06-23T06:32:02.842Z</time>
      </trkpt>
      <trkpt lat="49.890176" lon="7.840043">
        <ele>190.950666</ele>
        <time>2020-06-23T06:32:07.829Z</time>
      </trkpt>
      <trkpt lat="49.890247" lon="7.840162">
        <ele>190.702193</ele>
        <time>2020-06-23T06:32:12.831Z</time>
      </trkpt>
      <trkpt lat="49.890299" lon="7.840282">
        <ele>190.480641</ele>
        <time>2020-06-23T06:32:17.832Z</time>
      </trkpt>
      <trkpt lat="49.890322" lon="7.840430">
        <ele>190.418128</ele>
        <time>2020-06-23T06:32:22.823Z</time>
      </trkpt>
      <trkpt lat="49.890366" lon="7.840572">
        <ele>190.387711</ele>
        <time>2020-06-23T06:32:29.835Z</time>
      </trkpt>
      <trkpt lat="49.890417" lon="7.840709">
        <ele>190.357168</ele>
        <time>2020-06-23T06:32:35.835Z</time>
      </trkpt>
      <trkpt lat="49.890469" lon="7.840828">
        <ele>190.329411</ele>
        <time>2020-06-23T06:32:41.829Z</time>
      </trkpt>
      <trkpt lat="49.890498" lon="7.840975">
        <ele>190.299734</ele>
        <time>2020-06-23T06:32:48.832Z</time>
      </trkpt>
      <trkpt lat="49.890549" lon="7.841102">
        <ele>190.270846</ele>
        <time>2020-06-23T06:32:55.837Z</time>
      </trkpt>
      <trkpt lat="49.890631" lon="7.841028">
        <ele>190.242426</ele>
        <time>2020-06-23T06:33:02.826Z</time>
      </trkpt>
      <trkpt lat="49.890681" lon="7.840909">
        <ele>190.215001</ele>
        <time>2020-06-23T06:33:06.822Z</time>
      </trkpt>
      <trkpt lat="49.890764" lon="7.840853">
        <ele>190.187884</ele>
        <time>2020-06-23T06:33:19.831Z</time>
      </trkpt>
      <trkpt lat="49.890846" lon="7.840912">
        <ele>190.160803</ele>
        <time>2020-06-23T06:33:39.839Z</time>
      </trkpt>
      <trkpt lat="49.890909" lon="7.841033">
        <ele>190.130772</ele>
        <time>2020-06-23T06:33:45.822Z</time>
      </trkpt>
      <trkpt lat="49.890983" lon="7.841141">
        <ele>190.100338</ele>
        <time>2020-06-23T06:33:52.834Z</time>
      </trkpt>
      <trkpt lat="49.891055" lon="7.841250">
        <ele>190.070203</ele>
        <time>2020-06-23T06:33:59.821Z</time>
      </trkpt>
      <trkpt lat="49.891113" lon="7.841365">
        <ele>190.042011</ele>
        <time>2020-06-23T06:34:05.823Z</time>
      </trkpt>
      <trkpt lat="49.891153" lon="7.841507">
        <ele>190.012094</ele>
        <time>2020-06-23T06:34:11.829Z</time>
      </trkpt>
      <trkpt lat="49.891242" lon="7.841543">
        <ele>189.984537</ele>
        <time>2020-06-23T06:34:23.827Z</time>
      </trkpt>
      <trkpt lat="49.891319" lon="7.841429">
        <ele>189.952654</ele>
        <time>2020-06-23T06:34:28.831Z</time>
      </trkpt>
      <trkpt lat="49.891384" lon="7.841316">
        <ele>189.923411</ele>
        <time>2020-06-23T06:34:32.834Z</time>
      </trkpt>
      <trkpt lat="49.891450" lon="7.841207">
        <ele>189.944989</ele>
        <time>2020-06-23T06:34:39.821Z</time>
      </trkpt>
      <trkpt lat="49.891535" lon="7.841112">
        <ele>190.084221</ele>
        <time>2020-06-23T06:34:46.824Z</time>
      </trkpt>
      <trkpt lat="49.891622" lon="7.841069">
        <ele>190.205591</ele>
        <time>2020-06-23T06:34:50.829Z</time>
      </trkpt>
      <trkpt lat="49.891675" lon="7.841211">
        <ele>190.346132</ele>
        <time>2020-06-23T06:34:56.831Z</time>
      </trkpt>
      <trkpt lat="49.891727" lon="7.841348">
        <ele>190.482304</ele>
        <time>2020-06-23T06:35:01.837Z</time>
      </trkpt>
      <trkpt lat="49.891786" lon="7.841459">
        <ele>190.605540</ele>
        <time>2020-06-23T06:35:06.836Z</time>
      </trkpt>
      <trkpt lat="49.891830" lon="7.841588">
        <ele>190.730540</ele>
        <time>2020-06-23T06:35:12.832Z</time>
      </trkpt>
      <trkpt lat="49.891838" lon="7.841733">
        <ele>190.855170</ele>
        <time>2020-06-23T06:35:18.830Z</time>
      </trkpt>
      <trkpt lat="49.891785" lon="7.841848">
        <ele>190.976259</ele>
        <time>2020-06-23T06:35:23.834Z</time>
      </trkpt>
      <trkpt lat="49.891719" lon="7.841974">
        <ele>191.115328</ele>
        <time>2020-06-23T06:35:29.830Z</time>
      </trkpt>
      <trkpt lat="49.891743" lon="7.842127">
        <ele>191.250182</ele>
        <time>2020-06-23T06:35:35.841Z</time>
      </trkpt>
      <trkpt lat="49.891802" lon="7.842240">
        <ele>191.374744</ele>
        <time>2020-06-23T06:35:40.836Z</time>
      </trkpt>
      <trkpt lat="49.891821" lon="7.842377">
        <ele>191.494755</ele>
        <time>2020-06-23T06:35:49.830Z</time>
      </trkpt>
      <trkpt lat="49.891747" lon="7.842470">
        <ele>191.621323</ele>
        <time>2020-06-23T06:35:56.832Z</time>
      </trkpt>
      <trkpt lat="49.891677" lon="7.842565">
        <ele>191.744924</ele>
        <time>2020-06-23T06:36:01.821Z</time>
      </trkpt>
      <trkpt lat="49.891609" lon="7.842682">
        <ele>191.879868</ele>
        <time>2020-06-23T06:36:07.831Z</time>
      </trkpt>
      <trkpt lat="49.891538" lon="7.842779">
        <ele>192.005598</ele>
        <time>2020-06-23T06:36:14.828Z</time>
      </trkpt>
      <trkpt lat="49.891546" lon="7.842945">
        <ele>192.148155</ele>
        <time>2020-06-23T06:36:20.824Z</time>
      </trkpt>
      <trkpt lat="49.891559" lon="7.843108">
        <ele>192.288811</ele>
        <time>2020-06-23T06:36:26.832Z</time>
      </trkpt>
      <trkpt lat="49.891561" lon="7.843250">
        <ele>192.493843</ele>
        <time>2020-06-23T06:36:31.826Z</time>
      </trkpt>
      <trkpt lat="49.891603" lon="7.843510">
        <ele>192.888858</ele>
        <time>2020-06-23T06:37:15.839Z</time>
      </trkpt>
      <trkpt lat="49.891558" lon="7.843733">
        <ele>193.233231</ele>
        <time>2020-06-23T06:37:37.811Z</time>
      </trkpt>
      <trkpt lat="49.891620" lon="7.843837">
        <ele>193.442044</ele>
        <time>2020-06-23T06:38:05.856Z</time>
      </trkpt>
      <trkpt lat="49.891608" lon="7.843977">
        <ele>193.650176</ele>
        <time>2020-06-23T06:38:11.844Z</time>
      </trkpt>
      <trkpt lat="49.891570" lon="7.844111">
        <ele>193.865932</ele>
        <time>2020-06-23T06:38:18.825Z</time>
      </trkpt>
      <trkpt lat="49.891537" lon="7.844261">
        <ele>194.099516</ele>
        <time>2020-06-23T06:38:24.819Z</time>
      </trkpt>
      <trkpt lat="49.891504" lon="7.844396">
        <ele>194.312302</ele>
        <time>2020-06-23T06:38:30.840Z</time>
      </trkpt>
      <trkpt lat="49.891521" lon="7.844546">
        <ele>194.536747</ele>
        <time>2020-06-23T06:38:37.835Z</time>
      </trkpt>
      <trkpt lat="49.891572" lon="7.844663">
        <ele>194.744925</ele>
        <time>2020-06-23T06:38:41.835Z</time>
      </trkpt>
      <trkpt lat="49.891590" lon="7.844806">
        <ele>194.959645</ele>
        <time>2020-06-23T06:38:46.845Z</time>
      </trkpt>
      <trkpt lat="49.891517" lon="7.844904">
        <ele>195.180419</ele>
        <time>2020-06-23T06:39:00.841Z</time>
      </trkpt>
      <trkpt lat="49.891499" lon="7.845055">
        <ele>195.406721</ele>
        <time>2020-06-23T06:39:07.800Z</time>
      </trkpt>
      <trkpt lat="49.891488" lon="7.845201">
        <ele>195.623343</ele>
        <time>2020-06-23T06:39:12.824Z</time>
      </trkpt>
      <trkpt lat="49.891647" lon="7.845277">
        <ele>196.003905</ele>
        <time>2020-06-23T06:39:42.829Z</time>
      </trkpt>
      <trkpt lat="49.891733" lon="7.845327">
        <ele>196.213974</ele>
        <time>2020-06-23T06:39:48.812Z</time>
      </trkpt>
      <trkpt lat="49.891807" lon="7.845440">
        <ele>196.453984</ele>
        <time>2020-06-23T06:39:53.831Z</time>
      </trkpt>
      <trkpt lat="49.891881" lon="7.845522">
        <ele>196.674533</ele>
        <time>2020-06-23T06:39:59.831Z</time>
      </trkpt>
      <trkpt lat="49.891968" lon="7.845608">
        <ele>196.924730</ele>
        <time>2020-06-23T06:40:06.843Z</time>
      </trkpt>
      <trkpt lat="49.892050" lon="7.845708">
        <ele>197.177683</ele>
        <time>2020-06-23T06:40:13.828Z</time>
      </trkpt>
      <trkpt lat="49.892131" lon="7.845791">
        <ele>197.413117</ele>
        <time>2020-06-23T06:40:20.839Z</time>
      </trkpt>
      <trkpt lat="49.892219" lon="7.845835">
        <ele>197.637380</ele>
        <time>2020-06-23T06:40:28.826Z</time>
      </trkpt>
      <trkpt lat="49.892311" lon="7.845886">
        <ele>197.874350</ele>
        <time>2020-06-23T06:40:35.827Z</time>
      </trkpt>
      <trkpt lat="49.892382" lon="7.845988">
        <ele>198.109017</ele>
        <time>2020-06-23T06:40:41.825Z</time>
      </trkpt>
      <trkpt lat="49.892470" lon="7.846035">
        <ele>198.334762</ele>
        <time>2020-06-23T06:40:46.841Z</time>
      </trkpt>
      <trkpt lat="49.892563" lon="7.846090">
        <ele>198.576172</ele>
        <time>2020-06-23T06:40:54.842Z</time>
      </trkpt>
      <trkpt lat="49.892643" lon="7.846191">
        <ele>198.826310</ele>
        <time>2020-06-23T06:41:00.835Z</time>
      </trkpt>
      <trkpt lat="49.892727" lon="7.846243">
        <ele>199.045675</ele>
        <time>2020-06-23T06:41:07.841Z</time>
      </trkpt>
      <trkpt lat="49.892810" lon="7.846331">
        <ele>199.289492</ele>
        <time>2020-06-23T06:41:14.832Z</time>
      </trkpt>
      <trkpt lat="49.892887" lon="7.846407">
        <ele>199.510832</ele>
        <time>2020-06-23T06:41:20.836Z</time>
      </trkpt>
      <trkpt lat="49.892961" lon="7.846497">
        <ele>199.738870</ele>
        <time>2020-06-23T06:41:27.844Z</time>
      </trkpt>
      <trkpt lat="49.893034" lon="7.846589">
        <ele>199.966961</ele>
        <time>2020-06-23T06:41:34.840Z</time>
      </trkpt>
      <trkpt lat="49.893124" lon="7.846663">
        <ele>200.214010</ele>
        <time>2020-06-23T06:41:41.840Z</time>
      </trkpt>
      <trkpt lat="49.893206" lon="7.846743">
        <ele>200.448942</ele>
        <time>2020-06-23T06:41:48.833Z</time>
      </trkpt>
      <trkpt lat="49.893281" lon="7.846848">
        <ele>200.693933</ele>
        <time>2020-06-23T06:41:55.828Z</time>
      </trkpt>
      <trkpt lat="49.893330" lon="7.846976">
        <ele>200.888030</ele>
        <time>2020-06-23T06:42:02.818Z</time>
      </trkpt>
      <trkpt lat="49.893361" lon="7.847113">
        <ele>201.058295</ele>
        <time>2020-06-23T06:42:08.835Z</time>
      </trkpt>
      <trkpt lat="49.893352" lon="7.847332">
        <ele>201.315611</ele>
        <time>2020-06-23T06:42:40.846Z</time>
      </trkpt>
      <trkpt lat="49.893358" lon="7.847482">
        <ele>201.491836</ele>
        <time>2020-06-23T06:42:48.826Z</time>
      </trkpt>
      <trkpt lat="49.893366" lon="7.847644">
        <ele>201.682350</ele>
        <time>2020-06-23T06:42:55.829Z</time>
      </trkpt>
      <trkpt lat="49.893357" lon="7.847788">
        <ele>201.851994</ele>
        <time>2020-06-23T06:43:02.830Z</time>
      </trkpt>
      <trkpt lat="49.893349" lon="7.847935">
        <ele>202.024977</ele>
        <time>2020-06-23T06:43:07.841Z</time>
      </trkpt>
      <trkpt lat="49.893332" lon="7.848073">
        <ele>202.189724</ele>
        <time>2020-06-23T06:43:12.838Z</time>
      </trkpt>
      <trkpt lat="49.893318" lon="7.848230">
        <ele>202.375574</ele>
        <time>2020-06-23T06:43:19.835Z</time>
      </trkpt>
      <trkpt lat="49.893304" lon="7.848385">
        <ele>202.559101</ele>
        <time>2020-06-23T06:43:26.839Z</time>
      </trkpt>
      <trkpt lat="49.893298" lon="7.848532">
        <ele>202.731816</ele>
        <time>2020-06-23T06:43:32.843Z</time>
      </trkpt>
      <trkpt lat="49.893279" lon="7.848686">
        <ele>202.915675</ele>
        <time>2020-06-23T06:43:39.830Z</time>
      </trkpt>
      <trkpt lat="49.893276" lon="7.848844">
        <ele>203.101022</ele>
        <time>2020-06-23T06:43:46.842Z</time>
      </trkpt>
      <trkpt lat="49.893272" lon="7.848988">
        <ele>203.270030</ele>
        <time>2020-06-23T06:43:52.829Z</time>
      </trkpt>
      <trkpt lat="49.893257" lon="7.849138">
        <ele>203.448024</ele>
        <time>2020-06-23T06:43:59.839Z</time>
      </trkpt>
      <trkpt lat="49.893251" lon="7.849280">
        <ele>203.614888</ele>
        <time>2020-06-23T06:44:05.839Z</time>
      </trkpt>
      <trkpt lat="49.893257" lon="7.849419">
        <ele>203.778241</ele>
        <time>2020-06-23T06:44:11.835Z</time>
      </trkpt>
      <trkpt lat="49.893256" lon="7.849576">
        <ele>203.962345</ele>
        <time>2020-06-23T06:44:18.828Z</time>
      </trkpt>
      <trkpt lat="49.893256" lon="7.849728">
        <ele>204.296123</ele>
        <time>2020-06-23T06:44:24.824Z</time>
      </trkpt>
      <trkpt lat="49.893258" lon="7.849874">
        <ele>204.748725</ele>
        <time>2020-06-23T06:44:30.836Z</time>
      </trkpt>
      <trkpt lat="49.893263" lon="7.850016">
        <ele>205.189484</ele>
        <time>2020-06-23T06:44:36.826Z</time>
      </trkpt>
      <trkpt lat="49.893272" lon="7.850156">
        <ele>205.625543</ele>
        <time>2020-06-23T06:44:42.830Z</time>
      </trkpt>
      <trkpt lat="49.893276" lon="7.850305">
        <ele>206.087742</ele>
        <time>2020-06-23T06:44:49.834Z</time>
      </trkpt>
      <trkpt lat="49.893271" lon="7.850467">
        <ele>206.590406</ele>
        <time>2020-06-23T06:44:56.841Z</time>
      </trkpt>
      <trkpt lat="49.893325" lon="7.850593">
        <ele>207.059441</ele>
        <time>2020-06-23T06:45:03.826Z</time>
      </trkpt>
      <trkpt lat="49.893420" lon="7.850547">
        <ele>207.538206</ele>
        <time>2020-06-23T06:45:11.835Z</time>
      </trkpt>
      <trkpt lat="49.893516" lon="7.850541">
        <ele>208.000437</ele>
        <time>2020-06-23T06:45:18.841Z</time>
      </trkpt>
      <trkpt lat="49.893607" lon="7.850543">
        <ele>208.438282</ele>
        <time>2020-06-23T06:45:25.834Z</time>
      </trkpt>
      <trkpt lat="49.893703" lon="7.850563">
        <ele>208.904279</ele>
        <time>2020-06-23T06:45:34.829Z</time>
      </trkpt>
      <trkpt lat="49.893794" lon="7.850576">
        <ele>209.343930</ele>
        <time>2020-06-23T06:45:43.838Z</time>
      </trkpt>
      <trkpt lat="49.893896" lon="7.850580">
        <ele>209.834809</ele>
        <time>2020-06-23T06:45:50.834Z</time>
      </trkpt>
      <trkpt lat="49.893991" lon="7.850559">
        <ele>210.296466</ele>
        <time>2020-06-23T06:45:57.839Z</time>
      </trkpt>
      <trkpt lat="49.894076" lon="7.850506">
        <ele>210.737158</ele>
        <time>2020-06-23T06:46:04.827Z</time>
      </trkpt>
      <trkpt lat="49.894142" lon="7.850406">
        <ele>211.180866</ele>
        <time>2020-06-23T06:46:13.835Z</time>
      </trkpt>
      <trkpt lat="49.894188" lon="7.850280">
        <ele>211.629722</ele>
        <time>2020-06-23T06:46:20.832Z</time>
      </trkpt>
      <trkpt lat="49.894252" lon="7.850161">
        <ele>212.110166</ele>
        <time>2020-06-23T06:46:28.832Z</time>
      </trkpt>
      <trkpt lat="49.894311" lon="7.850044">
        <ele>212.570663</ele>
        <time>2020-06-23T06:46:36.842Z</time>
      </trkpt>
      <trkpt lat="49.894371" lon="7.849920">
        <ele>213.350303</ele>
        <time>2020-06-23T06:46:43.828Z</time>
      </trkpt>
      <trkpt lat="49.894411" lon="7.849791">
        <ele>214.170785</ele>
        <time>2020-06-23T06:46:50.828Z</time>
      </trkpt>
      <trkpt lat="49.894463" lon="7.849662">
        <ele>215.042890</ele>
        <time>2020-06-23T06:46:59.827Z</time>
      </trkpt>
      <trkpt lat="49.894507" lon="7.849537">
        <ele>215.859230</ele>
        <time>2020-06-23T06:47:06.838Z</time>
      </trkpt>
      <trkpt lat="49.894555" lon="7.849415">
        <ele>216.678498</ele>
        <time>2020-06-23T06:47:12.831Z</time>
      </trkpt>
      <trkpt lat="49.894552" lon="7.849268">
        <ele>217.521373</ele>
        <time>2020-06-23T06:47:21.839Z</time>
      </trkpt>
      <trkpt lat="49.894478" lon="7.849163">
        <ele>218.413281</ele>
        <time>2020-06-23T06:47:29.842Z</time>
      </trkpt>
      <trkpt lat="49.894533" lon="7.849046">
        <ele>219.243349</ele>
        <time>2020-06-23T06:47:50.832Z</time>
      </trkpt>
      <trkpt lat="49.894629" lon="7.849024">
        <ele>220.106651</ele>
        <time>2020-06-23T06:48:00.835Z</time>
      </trkpt>
      <trkpt lat="49.894715" lon="7.848955">
        <ele>220.967883</ele>
        <time>2020-06-23T06:48:08.827Z</time>
      </trkpt>
      <trkpt lat="49.894809" lon="7.848905">
        <ele>221.851867</ele>
        <time>2020-06-23T06:48:16.834Z</time>
      </trkpt>
      <trkpt lat="49.894900" lon="7.848859">
        <ele>222.703272</ele>
        <time>2020-06-23T06:48:25.833Z</time>
      </trkpt>
      <trkpt lat="49.894989" lon="7.848791">
        <ele>223.585752</ele>
        <time>2020-06-23T06:48:36.825Z</time>
      </trkpt>
      <trkpt lat="49.895069" lon="7.848715">
        <ele>224.420154</ele>
        <time>2020-06-23T06:48:46.821Z</time>
      </trkpt>
      <trkpt lat="49.895164" lon="7.848668">
        <ele>225.307187</ele>
        <time>2020-06-23T06:48:53.825Z</time>
      </trkpt>
      <trkpt lat="49.895251" lon="7.848625">
        <ele>226.119449</ele>
        <time>2020-06-23T06:49:00.837Z</time>
      </trkpt>
      <trkpt lat="49.895347" lon="7.848581">
        <ele>227.009942</ele>
        <time>2020-06-23T06:49:11.827Z</time>
      </trkpt>
      <trkpt lat="49.895439" lon="7.848528">
        <ele>227.882944</ele>
        <time>2020-06-23T06:49:20.838Z</time>
      </trkpt>
      <trkpt lat="49.895521" lon="7.848466">
        <ele>228.694371</ele>
        <time>2020-06-23T06:49:28.835Z</time>
      </trkpt>
      <trkpt lat="49.895584" lon="7.848359">
        <ele>229.393760</ele>
        <time>2020-06-23T06:49:38.839Z</time>
      </trkpt>
      <trkpt lat="49.895495" lon="7.848397">
        <ele>230.084129</ele>
        <time>2020-06-23T06:49:56.827Z</time>
      </trkpt>
      <trkpt lat="49.895398" lon="7.848449">
        <ele>230.851655</ele>
        <time>2020-06-23T06:50:04.837Z</time>
      </trkpt>
      <trkpt lat="49.895295" lon="7.848484">
        <ele>231.640255</ele>
        <time>2020-06-23T06:50:11.827Z</time>
      </trkpt>
      <trkpt lat="49.895196" lon="7.848519">
        <ele>232.399657</ele>
        <time>2020-06-23T06:50:17.829Z</time>
      </trkpt>
      <trkpt lat="49.895102" lon="7.848486">
        <ele>233.120457</ele>
        <time>2020-06-23T06:50:23.835Z</time>
      </trkpt>
      <trkpt lat="49.895014" lon="7.848425">
        <ele>233.841267</ele>
        <time>2020-06-23T06:50:30.830Z</time>
      </trkpt>
      <trkpt lat="49.894924" lon="7.848346">
        <ele>234.614558</ele>
        <time>2020-06-23T06:50:38.828Z</time>
      </trkpt>
      <trkpt lat="49.894958" lon="7.848211">
        <ele>235.312936</ele>
        <time>2020-06-23T06:50:45.822Z</time>
      </trkpt>
      <trkpt lat="49.895050" lon="7.848177">
        <ele>236.020255</ele>
        <time>2020-06-23T06:50:52.836Z</time>
      </trkpt>
      <trkpt lat="49.895141" lon="7.848146">
        <ele>236.717060</ele>
        <time>2020-06-23T06:51:00.840Z</time>
      </trkpt>
      <trkpt lat="49.895222" lon="7.848080">
        <ele>237.401261</ele>
        <time>2020-06-23T06:51:08.830Z</time>
      </trkpt>
      <trkpt lat="49.895315" lon="7.848043">
        <ele>238.119308</ele>
        <time>2020-06-23T06:51:17.835Z</time>
      </trkpt>
      <trkpt lat="49.895407" lon="7.848029">
        <ele>238.810695</ele>
        <time>2020-06-23T06:51:28.849Z</time>
      </trkpt>
      <trkpt lat="49.895501" lon="7.847988">
        <ele>239.540965</ele>
        <time>2020-06-23T06:51:37.838Z</time>
      </trkpt>
      <trkpt lat="49.895586" lon="7.847937">
        <ele>240.222533</ele>
        <time>2020-06-23T06:51:44.839Z</time>
      </trkpt>
      <trkpt lat="49.895671" lon="7.847876">
        <ele>240.922913</ele>
        <time>2020-06-23T06:51:52.840Z</time>
      </trkpt>
      <trkpt lat="49.895757" lon="7.847814">
        <ele>241.632104</ele>
        <time>2020-06-23T06:52:03.833Z</time>
      </trkpt>
      <trkpt lat="49.895808" lon="7.847688">
        <ele>242.102275</ele>
        <time>2020-06-23T06:52:12.843Z</time>
      </trkpt>
      <trkpt lat="49.895777" lon="7.847555">
        <ele>241.926325</ele>
        <time>2020-06-23T06:52:19.831Z</time>
      </trkpt>
      <trkpt lat="49.895698" lon="7.847450">
        <ele>241.725487</ele>
        <time>2020-06-23T06:52:27.842Z</time>
      </trkpt>
      <trkpt lat="49.895638" lon="7.847336">
        <ele>241.542354</ele>
        <time>2020-06-23T06:52:34.836Z</time>
      </trkpt>
      <trkpt lat="49.895585" lon="7.847222">
        <ele>241.367461</ele>
        <time>2020-06-23T06:52:41.834Z</time>
      </trkpt>
      <trkpt lat="49.895522" lon="7.847112">
        <ele>241.184357</ele>
        <time>2020-06-23T06:52:48.825Z</time>
      </trkpt>
      <trkpt lat="49.895449" lon="7.846922">
        <ele>240.909148</ele>
        <time>2020-06-23T06:53:13.829Z</time>
      </trkpt>
      <trkpt lat="49.895427" lon="7.846776">
        <ele>240.722619</ele>
        <time>2020-06-23T06:53:20.848Z</time>
      </trkpt>
      <trkpt lat="49.895395" lon="7.846497">
        <ele>240.370082</ele>
        <time>2020-06-23T06:53:47.814Z</time>
      </trkpt>
      <trkpt lat="49.895381" lon="7.846342">
        <ele>240.175374</ele>
        <time>2020-06-23T06:53:55.827Z</time>
      </trkpt>
      <trkpt lat="49.895385" lon="7.846197">
        <ele>239.994827</ele>
        <time>2020-06-23T06:54:01.831Z</time>
      </trkpt>
      <trkpt lat="49.895382" lon="7.846055">
        <ele>239.818082</ele>
        <time>2020-06-23T06:54:07.829Z</time>
      </trkpt>
      <trkpt lat="49.895374" lon="7.845912">
        <ele>239.639519</ele>
        <time>2020-06-23T06:54:13.833Z</time>
      </trkpt>
      <trkpt lat="49.895342" lon="7.845759">
        <ele>239.439404</ele>
        <time>2020-06-23T06:54:19.834Z</time>
      </trkpt>
      <trkpt lat="49.895315" lon="7.845609">
        <ele>239.245654</ele>
        <time>2020-06-23T06:54:26.821Z</time>
      </trkpt>
      <trkpt lat="49.895294" lon="7.845473">
        <ele>239.071676</ele>
        <time>2020-06-23T06:54:32.835Z</time>
      </trkpt>
      <trkpt lat="49.895265" lon="7.845340">
        <ele>238.897001</ele>
        <time>2020-06-23T06:54:38.831Z</time>
      </trkpt>
      <trkpt lat="49.895255" lon="7.845189">
        <ele>238.708164</ele>
        <time>2020-06-23T06:54:44.838Z</time>
      </trkpt>
      <trkpt lat="49.895243" lon="7.845037">
        <ele>238.538248</ele>
        <time>2020-06-23T06:54:50.837Z</time>
      </trkpt>
      <trkpt lat="49.895253" lon="7.844883">
        <ele>238.370196</ele>
        <time>2020-06-23T06:54:57.835Z</time>
      </trkpt>
      <trkpt lat="49.895274" lon="7.844729">
        <ele>238.199286</ele>
        <time>2020-06-23T06:55:04.839Z</time>
      </trkpt>
      <trkpt lat="49.895333" lon="7.844615">
        <ele>238.040513</ele>
        <time>2020-06-23T06:55:11.843Z</time>
      </trkpt>
      <trkpt lat="49.895425" lon="7.844546">
        <ele>237.868303</ele>
        <time>2020-06-23T06:55:18.840Z</time>
      </trkpt>
      <trkpt lat="49.895526" lon="7.844535">
        <ele>237.697654</ele>
        <time>2020-06-23T06:55:34.847Z</time>
      </trkpt>
      <trkpt lat="49.895617" lon="7.844515">
        <ele>237.542749</ele>
        <time>2020-06-23T06:55:41.835Z</time>
      </trkpt>
      <trkpt lat="49.895717" lon="7.844565">
        <ele>237.365677</ele>
        <time>2020-06-23T06:55:47.831Z</time>
      </trkpt>
      <trkpt lat="49.895807" lon="7.844534">
        <ele>237.210297</ele>
        <time>2020-06-23T06:55:53.837Z</time>
      </trkpt>
      <trkpt lat="49.895892" lon="7.844486">
        <ele>237.057850</ele>
        <time>2020-06-23T06:55:59.835Z</time>
      </trkpt>
      <trkpt lat="49.895989" lon="7.844515">
        <ele>236.891357</ele>
        <time>2020-06-23T06:56:14.843Z</time>
      </trkpt>
      <trkpt lat="49.896091" lon="7.844477">
        <ele>236.714559</ele>
        <time>2020-06-23T06:56:23.840Z</time>
      </trkpt>
      <trkpt lat="49.896193" lon="7.844455">
        <ele>236.540992</ele>
        <time>2020-06-23T06:56:30.835Z</time>
      </trkpt>
      <trkpt lat="49.896289" lon="7.844486">
        <ele>236.375726</ele>
        <time>2020-06-23T06:56:36.836Z</time>
      </trkpt>
      <trkpt lat="49.896389" lon="7.844503">
        <ele>236.206173</ele>
        <time>2020-06-23T06:56:44.830Z</time>
      </trkpt>
      <trkpt lat="49.896481" lon="7.844535">
        <ele>236.047267</ele>
        <time>2020-06-23T06:56:51.842Z</time>
      </trkpt>
      <trkpt lat="49.896580" lon="7.844549">
        <ele>235.879717</ele>
        <time>2020-06-23T06:56:57.844Z</time>
      </trkpt>
      <trkpt lat="49.896668" lon="7.844577">
        <ele>235.728314</ele>
        <time>2020-06-23T06:57:04.826Z</time>
      </trkpt>
      <trkpt lat="49.896767" lon="7.844616">
        <ele>236.146260</ele>
        <time>2020-06-23T06:57:12.837Z</time>
      </trkpt>
      <trkpt lat="49.896858" lon="7.844635">
        <ele>236.986300</ele>
        <time>2020-06-23T06:57:18.825Z</time>
      </trkpt>
      <trkpt lat="49.896951" lon="7.844686">
        <ele>237.888669</ele>
        <time>2020-06-23T06:57:26.824Z</time>
      </trkpt>
      <trkpt lat="49.897041" lon="7.844721">
        <ele>238.737507</ele>
        <time>2020-06-23T06:57:34.834Z</time>
      </trkpt>
      <trkpt lat="49.897136" lon="7.844755">
        <ele>239.629444</ele>
        <time>2020-06-23T06:57:40.834Z</time>
      </trkpt>
      <trkpt lat="49.897234" lon="7.844758">
        <ele>240.526204</ele>
        <time>2020-06-23T06:57:48.840Z</time>
      </trkpt>
      <trkpt lat="49.897323" lon="7.844716">
        <ele>241.377241</ele>
        <time>2020-06-23T06:57:55.842Z</time>
      </trkpt>
      <trkpt lat="49.897393" lon="7.844590">
        <ele>242.357815</ele>
        <time>2020-06-23T06:58:02.836Z</time>
      </trkpt>
      <trkpt lat="49.897429" lon="7.844456">
        <ele>243.213447</ele>
        <time>2020-06-23T06:58:08.825Z</time>
      </trkpt>
      <trkpt lat="49.897424" lon="7.844309">
        <ele>244.080968</ele>
        <time>2020-06-23T06:58:15.835Z</time>
      </trkpt>
      <trkpt lat="49.897422" lon="7.844150">
        <ele>245.018181</ele>
        <time>2020-06-23T06:58:23.834Z</time>
      </trkpt>
      <trkpt lat="49.897398" lon="7.843997">
        <ele>245.946205</ele>
        <time>2020-06-23T06:58:30.846Z</time>
      </trkpt>
      <trkpt lat="49.897333" lon="7.843874">
        <ele>246.883799</ele>
        <time>2020-06-23T06:58:36.829Z</time>
      </trkpt>
      <trkpt lat="49.897299" lon="7.843743">
        <ele>247.716133</ele>
        <time>2020-06-23T06:58:43.830Z</time>
      </trkpt>
      <trkpt lat="49.897252" lon="7.843609">
        <ele>248.615315</ele>
        <time>2020-06-23T06:58:51.844Z</time>
      </trkpt>
      <trkpt lat="49.897211" lon="7.843480">
        <ele>249.463055</ele>
        <time>2020-06-23T06:58:58.828Z</time>
      </trkpt>
      <trkpt lat="49.897158" lon="7.843345">
        <ele>250.394771</ele>
        <time>2020-06-23T06:59:05.838Z</time>
      </trkpt>
      <trkpt lat="49.897110" lon="7.843222">
        <ele>251.242296</ele>
        <time>2020-06-23T06:59:12.839Z</time>
      </trkpt>
      <trkpt lat="49.897069" lon="7.843078">
        <ele>252.144747</ele>
        <time>2020-06-23T06:59:20.828Z</time>
      </trkpt>
      <trkpt lat="49.897045" lon="7.842926">
        <ele>252.715861</ele>
        <time>2020-06-23T06:59:27.833Z</time>
      </trkpt>
      <trkpt lat="49.897020" lon="7.842787">
        <ele>253.242514</ele>
        <time>2020-06-23T06:59:41.825Z</time>
      </trkpt>
      <trkpt lat="49.897003" lon="7.842631">
        <ele>253.819894</ele>
        <time>2020-06-23T06:59:48.834Z</time>
      </trkpt>
      <trkpt lat="49.896989" lon="7.842476">
        <ele>254.391069</ele>
        <time>2020-06-23T06:59:55.835Z</time>
      </trkpt>
      <trkpt lat="49.897006" lon="7.842337">
        <ele>254.907383</ele>
        <time>2020-06-23T07:00:02.827Z</time>
      </trkpt>
      <trkpt lat="49.897089" lon="7.842250">
        <ele>255.474742</ele>
        <time>2020-06-23T07:00:10.832Z</time>
      </trkpt>
      <trkpt lat="49.897166" lon="7.842359">
        <ele>256.065089</ele>
        <time>2020-06-23T07:00:16.827Z</time>
      </trkpt>
      <trkpt lat="49.897201" lon="7.842497">
        <ele>256.606319</ele>
        <time>2020-06-23T07:00:22.824Z</time>
      </trkpt>
      <trkpt lat="49.897241" lon="7.842641">
        <ele>257.178593</ele>
        <time>2020-06-23T07:00:29.832Z</time>
      </trkpt>
      <trkpt lat="49.897323" lon="7.842735">
        <ele>257.756064</ele>
        <time>2020-06-23T07:00:37.837Z</time>
      </trkpt>
      <trkpt lat="49.897389" lon="7.842833">
        <ele>258.273461</ele>
        <time>2020-06-23T07:00:44.835Z</time>
      </trkpt>
      <trkpt lat="49.897461" lon="7.842922">
        <ele>258.794865</ele>
        <time>2020-06-23T07:00:50.835Z</time>
      </trkpt>
      <trkpt lat="49.897539" lon="7.843021">
        <ele>259.365638</ele>
        <time>2020-06-23T07:00:56.828Z</time>
      </trkpt>
      <trkpt lat="49.897597" lon="7.843135">
        <ele>259.895764</ele>
        <time>2020-06-23T07:01:04.840Z</time>
      </trkpt>
      <trkpt lat="49.897678" lon="7.843215">
        <ele>260.439638</ele>
        <time>2020-06-23T07:01:10.833Z</time>
      </trkpt>
      <trkpt lat="49.897763" lon="7.843299">
        <ele>261.010467</ele>
        <time>2020-06-23T07:01:17.837Z</time>
      </trkpt>
      <trkpt lat="49.897828" lon="7.843402">
        <ele>261.536659</ele>
        <time>2020-06-23T07:01:24.828Z</time>
      </trkpt>
      <trkpt lat="49.897884" lon="7.843527">
        <ele>262.092288</ele>
        <time>2020-06-23T07:01:31.830Z</time>
      </trkpt>
      <trkpt lat="49.897940" lon="7.843654">
        <ele>262.789224</ele>
        <time>2020-06-23T07:01:38.837Z</time>
      </trkpt>
      <trkpt lat="49.897992" lon="7.843793">
        <ele>263.595749</ele>
        <time>2020-06-23T07:01:45.836Z</time>
      </trkpt>
      <trkpt lat="49.898050" lon="7.843907">
        <ele>264.324645</ele>
        <time>2020-06-23T07:01:51.837Z</time>
      </trkpt>
      <trkpt lat="49.898105" lon="7.844025">
        <ele>265.055455</ele>
        <time>2020-06-23T07:01:57.832Z</time>
      </trkpt>
      <trkpt lat="49.898156" lon="7.844146">
        <ele>265.780995</ele>
        <time>2020-06-23T07:02:04.840Z</time>
      </trkpt>
      <trkpt lat="49.898228" lon="7.844240">
        <ele>266.513787</ele>
        <time>2020-06-23T07:02:12.837Z</time>
      </trkpt>
      <trkpt lat="49.898303" lon="7.844333">
        <ele>267.261473</ele>
        <time>2020-06-23T07:02:19.833Z</time>
      </trkpt>
      <trkpt lat="49.898388" lon="7.844391">
        <ele>267.984703</ele>
        <time>2020-06-23T07:02:25.830Z</time>
      </trkpt>
      <trkpt lat="49.898488" lon="7.844441">
        <ele>268.803044</ele>
        <time>2020-06-23T07:02:32.833Z</time>
      </trkpt>
      <trkpt lat="49.898580" lon="7.844473">
        <ele>269.537432</ele>
        <time>2020-06-23T07:02:38.837Z</time>
      </trkpt>
      <trkpt lat="49.898667" lon="7.844508">
        <ele>270.237492</ele>
        <time>2020-06-23T07:02:43.825Z</time>
      </trkpt>
      <trkpt lat="49.898736" lon="7.844616">
        <ele>271.000715</ele>
        <time>2020-06-23T07:02:50.831Z</time>
      </trkpt>
      <trkpt lat="49.898802" lon="7.844732">
        <ele>271.777277</ele>
        <time>2020-06-23T07:02:57.830Z</time>
      </trkpt>
      <trkpt lat="49.898852" lon="7.844855">
        <ele>272.507040</ele>
        <time>2020-06-23T07:03:04.842Z</time>
      </trkpt>
      <trkpt lat="49.898895" lon="7.845001">
        <ele>273.312528</ele>
        <time>2020-06-23T07:03:11.827Z</time>
      </trkpt>
      <trkpt lat="49.898942" lon="7.845137">
        <ele>274.086905</ele>
        <time>2020-06-23T07:03:17.833Z</time>
      </trkpt>
      <trkpt lat="49.899001" lon="7.845249">
        <ele>274.812850</ele>
        <time>2020-06-23T07:03:24.827Z</time>
      </trkpt>
      <trkpt lat="49.899074" lon="7.845343">
        <ele>275.551616</ele>
        <time>2020-06-23T07:03:31.827Z</time>
      </trkpt>
      <trkpt lat="49.899155" lon="7.845446">
        <ele>276.345200</ele>
        <time>2020-06-23T07:03:38.840Z</time>
      </trkpt>
      <trkpt lat="49.899232" lon="7.845546">
        <ele>276.857675</ele>
        <time>2020-06-23T07:03:44.831Z</time>
      </trkpt>
      <trkpt lat="49.899301" lon="7.845642">
        <ele>277.330660</ele>
        <time>2020-06-23T07:03:51.833Z</time>
      </trkpt>
      <trkpt lat="49.899374" lon="7.845728">
        <ele>277.798462</ele>
        <time>2020-06-23T07:03:57.828Z</time>
      </trkpt>
      <trkpt lat="49.899452" lon="7.845838">
        <ele>278.336397</ele>
        <time>2020-06-23T07:04:03.834Z</time>
      </trkpt>
      <trkpt lat="49.899523" lon="7.845951">
        <ele>278.855460</ele>
        <time>2020-06-23T07:04:10.838Z</time>
      </trkpt>
      <trkpt lat="49.899580" lon="7.846061">
        <ele>279.319674</ele>
        <time>2020-06-23T07:04:16.834Z</time>
      </trkpt>
      <trkpt lat="49.899644" lon="7.846168">
        <ele>279.799807</ele>
        <time>2020-06-23T07:04:22.827Z</time>
      </trkpt>
      <trkpt lat="49.899713" lon="7.846285">
        <ele>280.321417</ele>
        <time>2020-06-23T07:04:29.835Z</time>
      </trkpt>
      <trkpt lat="49.899782" lon="7.846380">
        <ele>280.792212</ele>
        <time>2020-06-23T07:04:35.828Z</time>
      </trkpt>
      <trkpt lat="49.899848" lon="7.846474">
        <ele>281.249432</ele>
        <time>2020-06-23T07:04:41.833Z</time>
      </trkpt>
      <trkpt lat="49.899919" lon="7.846584">
        <ele>281.761478</ele>
        <time>2020-06-23T07:04:48.834Z</time>
      </trkpt>
      <trkpt lat="49.900022" lon="7.846623">
        <ele>282.302690</ele>
        <time>2020-06-23T07:04:55.845Z</time>
      </trkpt>
      <trkpt lat="49.900122" lon="7.846606">
        <ele>282.816227</ele>
        <time>2020-06-23T07:05:02.829Z</time>
      </trkpt>
      <trkpt lat="49.900220" lon="7.846596">
        <ele>283.317581</ele>
        <time>2020-06-23T07:05:10.838Z</time>
      </trkpt>
      <trkpt lat="49.900312" lon="7.846580">
        <ele>283.790165</ele>
        <time>2020-06-23T07:05:17.831Z</time>
      </trkpt>
      <trkpt lat="49.900410" lon="7.846573">
        <ele>284.290970</ele>
        <time>2020-06-23T07:05:23.838Z</time>
      </trkpt>
      <trkpt lat="49.900508" lon="7.846562">
        <ele>284.792551</ele>
        <time>2020-06-23T07:05:28.841Z</time>
      </trkpt>
      <trkpt lat="49.900598" lon="7.846557">
        <ele>285.252282</ele>
        <time>2020-06-23T07:05:33.835Z</time>
      </trkpt>
      <trkpt lat="49.900687" lon="7.846526">
        <ele>285.736607</ele>
        <time>2020-06-23T07:05:41.836Z</time>
      </trkpt>
      <trkpt lat="49.900776" lon="7.846506">
        <ele>286.232562</ele>
        <time>2020-06-23T07:05:47.825Z</time>
      </trkpt>
      <trkpt lat="49.900881" lon="7.846489">
        <ele>286.814782</ele>
        <time>2020-06-23T07:05:52.830Z</time>
      </trkpt>
      <trkpt lat="49.900977" lon="7.846473">
        <ele>287.347269</ele>
        <time>2020-06-23T07:05:58.835Z</time>
      </trkpt>
      <trkpt lat="49.901077" lon="7.846470">
        <ele>287.898877</ele>
        <time>2020-06-23T07:06:05.838Z</time>
      </trkpt>
      <trkpt lat="49.901176" lon="7.846456">
        <ele>288.447127</ele>
        <time>2020-06-23T07:06:11.832Z</time>
      </trkpt>
      <trkpt lat="49.901278" lon="7.846437">
        <ele>289.013697</ele>
        <time>2020-06-23T07:06:19.826Z</time>
      </trkpt>
      <trkpt lat="49.901373" lon="7.846413">
        <ele>289.544518</ele>
        <time>2020-06-23T07:06:25.839Z</time>
      </trkpt>
      <trkpt lat="49.901467" lon="7.846401">
        <ele>290.064682</ele>
        <time>2020-06-23T07:06:32.844Z</time>
      </trkpt>
      <trkpt lat="49.901559" lon="7.846384">
        <ele>290.575648</ele>
        <time>2020-06-23T07:06:39.833Z</time>
      </trkpt>
      <trkpt lat="49.901658" lon="7.846374">
        <ele>291.122792</ele>
        <time>2020-06-23T07:06:46.842Z</time>
      </trkpt>
      <trkpt lat="49.901748" lon="7.846377">
        <ele>291.619261</ele>
        <time>2020-06-23T07:06:51.834Z</time>
      </trkpt>
      <trkpt lat="49.901852" lon="7.846390">
        <ele>292.194682</ele>
        <time>2020-06-23T07:06:58.837Z</time>
      </trkpt>
      <trkpt lat="49.901946" lon="7.846401">
        <ele>292.714567</ele>
        <time>2020-06-23T07:07:04.836Z</time>
      </trkpt>
      <trkpt lat="49.902050" lon="7.846412">
        <ele>293.289462</ele>
        <time>2020-06-23T07:07:11.836Z</time>
      </trkpt>
      <trkpt lat="49.902150" lon="7.846435">
        <ele>293.846986</ele>
        <time>2020-06-23T07:07:18.843Z</time>
      </trkpt>
      <trkpt lat="49.902247" lon="7.846447">
        <ele>294.383641</ele>
        <time>2020-06-23T07:07:24.833Z</time>
      </trkpt>
      <trkpt lat="49.902336" lon="7.846478">
        <ele>294.886682</ele>
        <time>2020-06-23T07:07:30.828Z</time>
      </trkpt>
      <trkpt lat="49.902426" lon="7.846507">
        <ele>295.393613</ele>
        <time>2020-06-23T07:07:36.836Z</time>
      </trkpt>
      <trkpt lat="49.902531" lon="7.846536">
        <ele>295.642395</ele>
        <time>2020-06-23T07:07:42.839Z</time>
      </trkpt>
      <trkpt lat="49.902626" lon="7.846554">
        <ele>295.859745</ele>
        <time>2020-06-23T07:07:48.840Z</time>
      </trkpt>
      <trkpt lat="49.902726" lon="7.846582">
        <ele>296.090513</ele>
        <time>2020-06-23T07:07:54.839Z</time>
      </trkpt>
      <trkpt lat="49.902817" lon="7.846610">
        <ele>296.301197</ele>
        <time>2020-06-23T07:08:00.835Z</time>
      </trkpt>
      <trkpt lat="49.902914" lon="7.846633">
        <ele>296.524042</ele>
        <time>2020-06-23T07:08:07.830Z</time>
      </trkpt>
      <trkpt lat="49.903017" lon="7.846652">
        <ele>296.759604</ele>
        <time>2020-06-23T07:08:13.838Z</time>
      </trkpt>
      <trkpt lat="49.903116" lon="7.846684">
        <ele>296.989258</ele>
        <time>2020-06-23T07:08:20.834Z</time>
      </trkpt>
      <trkpt lat="49.903213" lon="7.846707">
        <ele>297.212103</ele>
        <time>2020-06-23T07:08:26.840Z</time>
      </trkpt>
      <trkpt lat="49.903307" lon="7.846747">
        <ele>297.433454</ele>
        <time>2020-06-23T07:08:32.841Z</time>
      </trkpt>
      <trkpt lat="49.903399" lon="7.846782">
        <ele>297.648571</ele>
        <time>2020-06-23T07:08:38.841Z</time>
      </trkpt>
      <trkpt lat="49.903496" lon="7.846808">
        <ele>297.872120</ele>
        <time>2020-06-23T07:08:45.831Z</time>
      </trkpt>
      <trkpt lat="49.903595" lon="7.846830">
        <ele>298.099245</ele>
        <time>2020-06-23T07:08:51.833Z</time>
      </trkpt>
      <trkpt lat="49.903688" lon="7.846864">
        <ele>298.316228</ele>
        <time>2020-06-23T07:08:58.835Z</time>
      </trkpt>
      <trkpt lat="49.903785" lon="7.846868">
        <ele>298.536597</ele>
        <time>2020-06-23T07:09:04.833Z</time>
      </trkpt>
      <trkpt lat="49.903881" lon="7.846913">
        <ele>298.764336</ele>
        <time>2020-06-23T07:09:10.834Z</time>
      </trkpt>
      <trkpt lat="49.903978" lon="7.846968">
        <ele>298.998857</ele>
        <time>2020-06-23T07:09:17.828Z</time>
      </trkpt>
      <trkpt lat="49.904074" lon="7.846982">
        <ele>299.217837</ele>
        <time>2020-06-23T07:09:23.835Z</time>
      </trkpt>
      <trkpt lat="49.904177" lon="7.846985">
        <ele>299.451795</ele>
        <time>2020-06-23T07:09:29.832Z</time>
      </trkpt>
      <trkpt lat="49.904271" lon="7.846993">
        <ele>299.760646</ele>
        <time>2020-06-23T07:09:35.835Z</time>
      </trkpt>
      <trkpt lat="49.904363" lon="7.847015">
        <ele>300.086214</ele>
        <time>2020-06-23T07:09:41.844Z</time>
      </trkpt>
      <trkpt lat="49.904452" lon="7.847058">
        <ele>300.412218</ele>
        <time>2020-06-23T07:09:48.839Z</time>
      </trkpt>
      <trkpt lat="49.904554" lon="7.847104">
        <ele>300.783712</ele>
        <time>2020-06-23T07:09:55.836Z</time>
      </trkpt>
      <trkpt lat="49.904649" lon="7.847137">
        <ele>301.124193</ele>
        <time>2020-06-23T07:10:01.828Z</time>
      </trkpt>
      <trkpt lat="49.904749" lon="7.847172">
        <ele>301.482724</ele>
        <time>2020-06-23T07:10:08.838Z</time>
      </trkpt>
      <trkpt lat="49.904848" lon="7.847170">
        <ele>301.829010</ele>
        <time>2020-06-23T07:10:14.837Z</time>
      </trkpt>
      <trkpt lat="49.904948" lon="7.847204">
        <ele>302.187052</ele>
        <time>2020-06-23T07:10:21.841Z</time>
      </trkpt>
      <trkpt lat="49.905052" lon="7.847230">
        <ele>302.555481</ele>
        <time>2020-06-23T07:10:28.830Z</time>
      </trkpt>
      <trkpt lat="49.905149" lon="7.847250">
        <ele>302.897721</ele>
        <time>2020-06-23T07:10:34.835Z</time>
      </trkpt>
      <trkpt lat="49.905249" lon="7.847292">
        <ele>303.260046</ele>
        <time>2020-06-23T07:10:41.842Z</time>
      </trkpt>
      <trkpt lat="49.905339" lon="7.847314">
        <ele>303.578702</ele>
        <time>2020-06-23T07:10:46.845Z</time>
      </trkpt>
      <trkpt lat="49.905427" lon="7.847347">
        <ele>303.895336</ele>
        <time>2020-06-23T07:10:52.835Z</time>
      </trkpt>
      <trkpt lat="49.905517" lon="7.847375">
        <ele>304.216372</ele>
        <time>2020-06-23T07:10:58.831Z</time>
      </trkpt>
      <trkpt lat="49.905611" lon="7.847401">
        <ele>304.550317</ele>
        <time>2020-06-23T07:11:04.835Z</time>
      </trkpt>
      <trkpt lat="49.905716" lon="7.847410">
        <ele>304.918118</ele>
        <time>2020-06-23T07:11:11.834Z</time>
      </trkpt>
      <trkpt lat="49.905815" lon="7.847434">
        <ele>305.268570</ele>
        <time>2020-06-23T07:11:18.833Z</time>
      </trkpt>
      <trkpt lat="49.905903" lon="7.847468">
        <ele>305.585740</ele>
        <time>2020-06-23T07:11:24.838Z</time>
      </trkpt>
      <trkpt lat="49.905998" lon="7.847499">
        <ele>305.960465</ele>
        <time>2020-06-23T07:11:31.835Z</time>
      </trkpt>
      <trkpt lat="49.906105" lon="7.847503">
        <ele>306.425788</ele>
        <time>2020-06-23T07:11:38.835Z</time>
      </trkpt>
      <trkpt lat="49.906201" lon="7.847537">
        <ele>306.853873</ele>
        <time>2020-06-23T07:11:44.829Z</time>
      </trkpt>
      <trkpt lat="49.906297" lon="7.847578">
        <ele>307.286739</ele>
        <time>2020-06-23T07:11:50.849Z</time>
      </trkpt>
      <trkpt lat="49.906391" lon="7.847599">
        <ele>307.699617</ele>
        <time>2020-06-23T07:11:57.838Z</time>
      </trkpt>
      <trkpt lat="49.906484" lon="7.847632">
        <ele>308.114363</ele>
        <time>2020-06-23T07:12:06.832Z</time>
      </trkpt>
      <trkpt lat="49.906501" lon="7.847490">
        <ele>308.518772</ele>
        <time>2020-06-23T07:12:32.830Z</time>
      </trkpt>
      <trkpt lat="49.906512" lon="7.847351">
        <ele>308.910897</ele>
        <time>2020-06-23T07:12:37.848Z</time>
      </trkpt>
      <trkpt lat="49.906541" lon="7.847208">
        <ele>309.330675</ele>
        <time>2020-06-23T07:12:46.841Z</time>
      </trkpt>
      <trkpt lat="49.906550" lon="7.847045">
        <ele>309.788747</ele>
        <time>2020-06-23T07:12:53.838Z</time>
      </trkpt>
      <trkpt lat="49.906547" lon="7.846898">
        <ele>310.200551</ele>
        <time>2020-06-23T07:12:59.837Z</time>
      </trkpt>
      <trkpt lat="49.906528" lon="7.846758">
        <ele>310.601157</ele>
        <time>2020-06-23T07:13:06.825Z</time>
      </trkpt>
      <trkpt lat="49.906514" lon="7.846615">
        <ele>311.006154</ele>
        <time>2020-06-23T07:13:12.827Z</time>
      </trkpt>
      <trkpt lat="49.906533" lon="7.846466">
        <ele>311.431451</ele>
        <time>2020-06-23T07:13:19.836Z</time>
      </trkpt>
      <trkpt lat="49.906540" lon="7.846311">
        <ele>311.866514</ele>
        <time>2020-06-23T07:13:28.831Z</time>
      </trkpt>
      <trkpt lat="49.906540" lon="7.846155">
        <ele>312.303311</ele>
        <time>2020-06-23T07:13:35.845Z</time>
      </trkpt>
      <trkpt lat="49.906552" lon="7.846005">
        <ele>312.726536</ele>
        <time>2020-06-23T07:13:42.845Z</time>
      </trkpt>
      <trkpt lat="49.906566" lon="7.845861">
        <ele>313.134301</ele>
        <time>2020-06-23T07:13:48.838Z</time>
      </trkpt>
      <trkpt lat="49.906584" lon="7.845720">
        <ele>313.536780</ele>
        <time>2020-06-23T07:13:54.840Z</time>
      </trkpt>
      <trkpt lat="49.906594" lon="7.845565">
        <ele>313.710978</ele>
        <time>2020-06-23T07:14:01.844Z</time>
      </trkpt>
      <trkpt lat="49.906604" lon="7.845419">
        <ele>313.833214</ele>
        <time>2020-06-23T07:14:07.835Z</time>
      </trkpt>
      <trkpt lat="49.906595" lon="7.845273">
        <ele>313.955320</ele>
        <time>2020-06-23T07:14:13.828Z</time>
      </trkpt>
      <trkpt lat="49.906599" lon="7.845132">
        <ele>314.072821</ele>
        <time>2020-06-23T07:14:19.841Z</time>
      </trkpt>
      <trkpt lat="49.906604" lon="7.844979">
        <ele>314.200363</ele>
        <time>2020-06-23T07:14:27.835Z</time>
      </trkpt>
      <trkpt lat="49.906610" lon="7.844834">
        <ele>314.321330</ele>
        <time>2020-06-23T07:14:33.841Z</time>
      </trkpt>
      <trkpt lat="49.906605" lon="7.844680">
        <ele>314.449704</ele>
        <time>2020-06-23T07:14:39.828Z</time>
      </trkpt>
      <trkpt lat="49.906615" lon="7.844523">
        <ele>314.581050</ele>
        <time>2020-06-23T07:14:46.838Z</time>
      </trkpt>
      <trkpt lat="49.906628" lon="7.844378">
        <ele>314.702932</ele>
        <time>2020-06-23T07:14:52.841Z</time>
      </trkpt>
      <trkpt lat="49.906644" lon="7.844226">
        <ele>314.831156</ele>
        <time>2020-06-23T07:14:58.840Z</time>
      </trkpt>
      <trkpt lat="49.906640" lon="7.844073">
        <ele>314.958639</ele>
        <time>2020-06-23T07:15:04.835Z</time>
      </trkpt>
      <trkpt lat="49.906649" lon="7.843934">
        <ele>315.074945</ele>
        <time>2020-06-23T07:15:10.837Z</time>
      </trkpt>
      <trkpt lat="49.906651" lon="7.843779">
        <ele>315.204014</ele>
        <time>2020-06-23T07:15:16.836Z</time>
      </trkpt>
      <trkpt lat="49.906658" lon="7.843636">
        <ele>315.323410</ele>
        <time>2020-06-23T07:15:22.836Z</time>
      </trkpt>
      <trkpt lat="49.906663" lon="7.843484">
        <ele>315.450121</ele>
        <time>2020-06-23T07:15:29.841Z</time>
      </trkpt>
      <trkpt lat="49.906663" lon="7.843328">
        <ele>315.579997</ele>
        <time>2020-06-23T07:15:36.835Z</time>
      </trkpt>
      <trkpt lat="49.906673" lon="7.843186">
        <ele>315.698921</ele>
        <time>2020-06-23T07:15:42.826Z</time>
      </trkpt>
      <trkpt lat="49.906703" lon="7.843046">
        <ele>315.821759</ele>
        <time>2020-06-23T07:15:48.832Z</time>
      </trkpt>
      <trkpt lat="49.906744" lon="7.842906">
        <ele>315.843206</ele>
        <time>2020-06-23T07:15:55.831Z</time>
      </trkpt>
      <trkpt lat="49.906708" lon="7.842773">
        <ele>315.442665</ele>
        <time>2020-06-23T07:16:02.832Z</time>
      </trkpt>
      <trkpt lat="49.906618" lon="7.842710">
        <ele>315.017081</ele>
        <time>2020-06-23T07:16:07.845Z</time>
      </trkpt>
      <trkpt lat="49.906533" lon="7.842654">
        <ele>314.619035</ele>
        <time>2020-06-23T07:16:14.834Z</time>
      </trkpt>
      <trkpt lat="49.906448" lon="7.842563">
        <ele>314.173952</ele>
        <time>2020-06-23T07:16:22.836Z</time>
      </trkpt>
      <trkpt lat="49.906353" lon="7.842489">
        <ele>313.715773</ele>
        <time>2020-06-23T07:16:29.845Z</time>
      </trkpt>
      <trkpt lat="49.906271" lon="7.842406">
        <ele>313.293802</ele>
        <time>2020-06-23T07:16:35.845Z</time>
      </trkpt>
      <trkpt lat="49.906182" lon="7.842332">
        <ele>312.858587</ele>
        <time>2020-06-23T07:16:41.849Z</time>
      </trkpt>
      <trkpt lat="49.906095" lon="7.842260">
        <ele>312.433593</ele>
        <time>2020-06-23T07:16:48.844Z</time>
      </trkpt>
      <trkpt lat="49.906007" lon="7.842184">
        <ele>311.999502</ele>
        <time>2020-06-23T07:16:54.832Z</time>
      </trkpt>
      <trkpt lat="49.905924" lon="7.842101">
        <ele>311.573912</ele>
        <time>2020-06-23T07:17:00.834Z</time>
      </trkpt>
      <trkpt lat="49.905844" lon="7.842009">
        <ele>311.144751</ele>
        <time>2020-06-23T07:17:06.845Z</time>
      </trkpt>
      <trkpt lat="49.905757" lon="7.841936">
        <ele>310.718443</ele>
        <time>2020-06-23T07:17:12.839Z</time>
      </trkpt>
      <trkpt lat="49.905666" lon="7.841881">
        <ele>310.297480</ele>
        <time>2020-06-23T07:17:18.842Z</time>
      </trkpt>
      <trkpt lat="49.905587" lon="7.841791">
        <ele>309.875083</ele>
        <time>2020-06-23T07:17:25.832Z</time>
      </trkpt>
      <trkpt lat="49.905516" lon="7.841689">
        <ele>309.458094</ele>
        <time>2020-06-23T07:17:31.846Z</time>
      </trkpt>
      <trkpt lat="49.905448" lon="7.841593">
        <ele>309.061896</ele>
        <time>2020-06-23T07:17:37.835Z</time>
      </trkpt>
      <trkpt lat="49.905375" lon="7.841497">
        <ele>308.649495</ele>
        <time>2020-06-23T07:17:43.840Z</time>
      </trkpt>
      <trkpt lat="49.905309" lon="7.841391">
        <ele>308.240149</ele>
        <time>2020-06-23T07:17:49.829Z</time>
      </trkpt>
      <trkpt lat="49.905221" lon="7.841332">
        <ele>307.501647</ele>
        <time>2020-06-23T07:17:55.838Z</time>
      </trkpt>
      <trkpt lat="49.905127" lon="7.841321">
        <ele>306.711607</ele>
        <time>2020-06-23T07:18:01.831Z</time>
      </trkpt>
      <trkpt lat="49.905031" lon="7.841297">
        <ele>305.896676</ele>
        <time>2020-06-23T07:18:08.841Z</time>
      </trkpt>
      <trkpt lat="49.904935" lon="7.841289">
        <ele>305.090949</ele>
        <time>2020-06-23T07:18:14.845Z</time>
      </trkpt>
      <trkpt lat="49.904839" lon="7.841271">
        <ele>304.280536</ele>
        <time>2020-06-23T07:18:20.836Z</time>
      </trkpt>
      <trkpt lat="49.904745" lon="7.841255">
        <ele>303.488009</ele>
        <time>2020-06-23T07:18:26.844Z</time>
      </trkpt>
      <trkpt lat="49.904648" lon="7.841240">
        <ele>302.671038</ele>
        <time>2020-06-23T07:18:32.846Z</time>
      </trkpt>
      <trkpt lat="49.904559" lon="7.841223">
        <ele>301.919513</ele>
        <time>2020-06-23T07:18:37.845Z</time>
      </trkpt>
      <trkpt lat="49.904460" lon="7.841211">
        <ele>301.087277</ele>
        <time>2020-06-23T07:18:43.840Z</time>
      </trkpt>
      <trkpt lat="49.904366" lon="7.841186">
        <ele>300.287997</ele>
        <time>2020-06-23T07:18:49.842Z</time>
      </trkpt>
      <trkpt lat="49.904271" lon="7.841162">
        <ele>299.481339</ele>
        <time>2020-06-23T07:18:55.826Z</time>
      </trkpt>
      <trkpt lat="49.904173" lon="7.841171">
        <ele>298.658573</ele>
        <time>2020-06-23T07:19:01.837Z</time>
      </trkpt>
      <trkpt lat="49.904070" lon="7.841195">
        <ele>297.785672</ele>
        <time>2020-06-23T07:19:08.836Z</time>
      </trkpt>
      <trkpt lat="49.903978" lon="7.841193">
        <ele>297.014551</ele>
        <time>2020-06-23T07:19:14.839Z</time>
      </trkpt>
      <trkpt lat="49.903877" lon="7.841194">
        <ele>296.168061</ele>
        <time>2020-06-23T07:19:21.834Z</time>
      </trkpt>
      <trkpt lat="49.903780" lon="7.841209">
        <ele>295.351090</ele>
        <time>2020-06-23T07:19:27.830Z</time>
      </trkpt>
      <trkpt lat="49.903686" lon="7.841216">
        <ele>294.562378</ele>
        <time>2020-06-23T07:19:33.839Z</time>
      </trkpt>
      <trkpt lat="49.903584" lon="7.841220">
        <ele>293.707251</ele>
        <time>2020-06-23T07:19:40.846Z</time>
      </trkpt>
      <trkpt lat="49.903480" lon="7.841232">
        <ele>292.719790</ele>
        <time>2020-06-23T07:19:47.838Z</time>
      </trkpt>
      <trkpt lat="49.903380" lon="7.841228">
        <ele>291.521105</ele>
        <time>2020-06-23T07:19:53.836Z</time>
      </trkpt>
      <trkpt lat="49.903280" lon="7.841227">
        <ele>290.322794</ele>
        <time>2020-06-23T07:19:59.836Z</time>
      </trkpt>
      <trkpt lat="49.903184" lon="7.841234">
        <ele>289.171170</ele>
        <time>2020-06-23T07:20:05.848Z</time>
      </trkpt>
      <trkpt lat="49.903080" lon="7.841240">
        <ele>287.924092</ele>
        <time>2020-06-23T07:20:12.846Z</time>
      </trkpt>
      <trkpt lat="49.903001" lon="7.841148">
        <ele>286.740743</ele>
        <time>2020-06-23T07:20:18.828Z</time>
      </trkpt>
      <trkpt lat="49.902960" lon="7.840995">
        <ele>285.461767</ele>
        <time>2020-06-23T07:20:24.842Z</time>
      </trkpt>
      <trkpt lat="49.902909" lon="7.840860">
        <ele>284.253840</ele>
        <time>2020-06-23T07:20:30.849Z</time>
      </trkpt>
      <trkpt lat="49.902849" lon="7.840734">
        <ele>283.044455</ele>
        <time>2020-06-23T07:20:36.839Z</time>
      </trkpt>
      <trkpt lat="49.902787" lon="7.840611">
        <ele>281.838987</ele>
        <time>2020-06-23T07:20:42.834Z</time>
      </trkpt>
      <trkpt lat="49.902739" lon="7.840476">
        <ele>280.648840</ele>
        <time>2020-06-23T07:20:49.847Z</time>
      </trkpt>
      <trkpt lat="49.902681" lon="7.840343">
        <ele>279.409192</ele>
        <time>2020-06-23T07:20:56.836Z</time>
      </trkpt>
      <trkpt lat="49.902642" lon="7.840211">
        <ele>278.288340</ele>
        <time>2020-06-23T07:21:02.851Z</time>
      </trkpt>
      <trkpt lat="49.902589" lon="7.840080">
        <ele>277.094360</ele>
        <time>2020-06-23T07:21:08.837Z</time>
      </trkpt>
      <trkpt lat="49.902572" lon="7.839934">
        <ele>275.949261</ele>
        <time>2020-06-23T07:21:15.846Z</time>
      </trkpt>
      <trkpt lat="49.902569" lon="7.839780">
        <ele>274.760140</ele>
        <time>2020-06-23T07:21:21.853Z</time>
      </trkpt>
      <trkpt lat="49.902551" lon="7.839637">
        <ele>273.635581</ele>
        <time>2020-06-23T07:21:29.682Z</time>
      </trkpt>
      <trkpt lat="49.902533" lon="7.839480">
        <ele>272.404802</ele>
        <time>2020-06-23T07:21:38.700Z</time>
      </trkpt>
      <trkpt lat="49.902520" lon="7.839329">
        <ele>271.113133</ele>
        <time>2020-06-23T07:21:45.694Z</time>
      </trkpt>
      <trkpt lat="49.902521" lon="7.839176">
        <ele>269.498157</ele>
        <time>2020-06-23T07:21:53.694Z</time>
      </trkpt>
      <trkpt lat="49.902526" lon="7.839026">
        <ele>267.912810</ele>
        <time>2020-06-23T07:22:02.696Z</time>
      </trkpt>
      <trkpt lat="49.902511" lon="7.838881">
        <ele>266.362741</ele>
        <time>2020-06-23T07:22:10.700Z</time>
      </trkpt>
      <trkpt lat="49.902499" lon="7.838733">
        <ele>264.788293</ele>
        <time>2020-06-23T07:22:19.692Z</time>
      </trkpt>
      <trkpt lat="49.902495" lon="7.838591">
        <ele>263.288070</ele>
        <time>2020-06-23T07:22:25.699Z</time>
      </trkpt>
      <trkpt lat="49.902489" lon="7.838437">
        <ele>261.659650</ele>
        <time>2020-06-23T07:22:32.691Z</time>
      </trkpt>
      <trkpt lat="49.902464" lon="7.838300">
        <ele>260.156719</ele>
        <time>2020-06-23T07:22:40.691Z</time>
      </trkpt>
      <trkpt lat="49.902463" lon="7.838160">
        <ele>258.678946</ele>
        <time>2020-06-23T07:22:46.694Z</time>
      </trkpt>
      <trkpt lat="49.902452" lon="7.838021">
        <ele>257.200787</ele>
        <time>2020-06-23T07:22:52.688Z</time>
      </trkpt>
      <trkpt lat="49.902444" lon="7.837876">
        <ele>255.664726</ele>
        <time>2020-06-23T07:22:58.695Z</time>
      </trkpt>
      <trkpt lat="49.902458" lon="7.837727">
        <ele>254.075404</ele>
        <time>2020-06-23T07:23:05.685Z</time>
      </trkpt>
      <trkpt lat="49.902464" lon="7.837568">
        <ele>252.394302</ele>
        <time>2020-06-23T07:23:13.687Z</time>
      </trkpt>
      <trkpt lat="49.902464" lon="7.837424">
        <ele>250.874401</ele>
        <time>2020-06-23T07:23:20.687Z</time>
      </trkpt>
      <trkpt lat="49.902461" lon="7.837271">
        <ele>249.258758</ele>
        <time>2020-06-23T07:23:27.692Z</time>
      </trkpt>
      <trkpt lat="49.902480" lon="7.837123">
        <ele>247.665910</ele>
        <time>2020-06-23T07:23:34.697Z</time>
      </trkpt>
      <trkpt lat="49.902456" lon="7.836988">
        <ele>246.187722</ele>
        <time>2020-06-23T07:23:39.694Z</time>
      </trkpt>
      <trkpt lat="49.902408" lon="7.836845">
        <ele>244.485709</ele>
        <time>2020-06-23T07:23:45.681Z</time>
      </trkpt>
      <trkpt lat="49.902331" lon="7.836743">
        <ele>242.827020</ele>
        <time>2020-06-23T07:23:51.688Z</time>
      </trkpt>
      <trkpt lat="49.902300" lon="7.836596">
        <ele>241.669643</ele>
        <time>2020-06-23T07:24:00.692Z</time>
      </trkpt>
      <trkpt lat="49.902287" lon="7.836451">
        <ele>240.963604</ele>
        <time>2020-06-23T07:24:07.690Z</time>
      </trkpt>
      <trkpt lat="49.902278" lon="7.836298">
        <ele>240.222654</ele>
        <time>2020-06-23T07:24:15.688Z</time>
      </trkpt>
      <trkpt lat="49.902276" lon="7.836143">
        <ele>239.474979</ele>
        <time>2020-06-23T07:24:21.694Z</time>
      </trkpt>
      <trkpt lat="49.902281" lon="7.835993">
        <ele>238.750600</ele>
        <time>2020-06-23T07:24:26.692Z</time>
      </trkpt>
      <trkpt lat="49.902303" lon="7.835853">
        <ele>238.055612</ele>
        <time>2020-06-23T07:24:32.694Z</time>
      </trkpt>
      <trkpt lat="49.902295" lon="7.835708">
        <ele>237.353755</ele>
        <time>2020-06-23T07:24:38.691Z</time>
      </trkpt>
      <trkpt lat="49.902269" lon="7.835574">
        <ele>236.678821</ele>
        <time>2020-06-23T07:24:44.698Z</time>
      </trkpt>
      <trkpt lat="49.902185" lon="7.835496">
        <ele>235.945950</ele>
        <time>2020-06-23T07:24:50.695Z</time>
      </trkpt>
      <trkpt lat="49.902098" lon="7.835444">
        <ele>235.247920</ele>
        <time>2020-06-23T07:24:56.693Z</time>
      </trkpt>
      <trkpt lat="49.901913" lon="7.835488">
        <ele>233.846547</ele>
        <time>2020-06-23T07:25:20.707Z</time>
      </trkpt>
      <trkpt lat="49.901818" lon="7.835500">
        <ele>233.132870</ele>
        <time>2020-06-23T07:25:27.696Z</time>
      </trkpt>
      <trkpt lat="49.901724" lon="7.835541">
        <ele>232.401784</ele>
        <time>2020-06-23T07:25:33.701Z</time>
      </trkpt>
      <trkpt lat="49.901627" lon="7.835598">
        <ele>231.625199</ele>
        <time>2020-06-23T07:25:40.688Z</time>
      </trkpt>
      <trkpt lat="49.901536" lon="7.835668">
        <ele>230.864776</ele>
        <time>2020-06-23T07:25:47.703Z</time>
      </trkpt>
      <trkpt lat="49.901450" lon="7.835731">
        <ele>230.152756</ele>
        <time>2020-06-23T07:25:52.693Z</time>
      </trkpt>
      <trkpt lat="49.901350" lon="7.835787">
        <ele>229.356772</ele>
        <time>2020-06-23T07:25:58.693Z</time>
      </trkpt>
      <trkpt lat="49.901259" lon="7.835840">
        <ele>228.629030</ele>
        <time>2020-06-23T07:26:04.699Z</time>
      </trkpt>
      <trkpt lat="49.901172" lon="7.835907">
        <ele>227.991642</ele>
        <time>2020-06-23T07:26:10.695Z</time>
      </trkpt>
      <trkpt lat="49.901086" lon="7.835964">
        <ele>227.381275</ele>
        <time>2020-06-23T07:26:16.693Z</time>
      </trkpt>
      <trkpt lat="49.901001" lon="7.836027">
        <ele>226.766466</ele>
        <time>2020-06-23T07:26:22.691Z</time>
      </trkpt>
      <trkpt lat="49.900927" lon="7.836115">
        <ele>226.158025</ele>
        <time>2020-06-23T07:26:28.703Z</time>
      </trkpt>
      <trkpt lat="49.900886" lon="7.836245">
        <ele>225.549457</ele>
        <time>2020-06-23T07:26:33.686Z</time>
      </trkpt>
      <trkpt lat="49.900874" lon="7.836384">
        <ele>224.959826</ele>
        <time>2020-06-23T07:26:38.695Z</time>
      </trkpt>
      <trkpt lat="49.900854" lon="7.836523">
        <ele>224.361017</ele>
        <time>2020-06-23T07:26:43.691Z</time>
      </trkpt>
      <trkpt lat="49.900837" lon="7.836666">
        <ele>223.749640</ele>
        <time>2020-06-23T07:26:48.694Z</time>
      </trkpt>
      <trkpt lat="49.900826" lon="7.836817">
        <ele>223.110734</ele>
        <time>2020-06-23T07:26:54.686Z</time>
      </trkpt>
      <trkpt lat="49.900819" lon="7.836976">
        <ele>222.440682</ele>
        <time>2020-06-23T07:27:02.701Z</time>
      </trkpt>
      <trkpt lat="49.900813" lon="7.837121">
        <ele>221.829793</ele>
        <time>2020-06-23T07:27:08.700Z</time>
      </trkpt>
      <trkpt lat="49.900801" lon="7.837282">
        <ele>221.148374</ele>
        <time>2020-06-23T07:27:14.697Z</time>
      </trkpt>
      <trkpt lat="49.900773" lon="7.837440">
        <ele>220.459401</ele>
        <time>2020-06-23T07:27:19.691Z</time>
      </trkpt>
      <trkpt lat="49.900748" lon="7.837578">
        <ele>219.856688</ele>
        <time>2020-06-23T07:27:25.693Z</time>
      </trkpt>
      <trkpt lat="49.900659" lon="7.837720">
        <ele>219.023670</ele>
        <time>2020-06-23T07:27:54.694Z</time>
      </trkpt>
      <trkpt lat="49.900592" lon="7.837828">
        <ele>218.393239</ele>
        <time>2020-06-23T07:28:00.688Z</time>
      </trkpt>
      <trkpt lat="49.900511" lon="7.837894">
        <ele>217.796129</ele>
        <time>2020-06-23T07:28:06.694Z</time>
      </trkpt>
      <trkpt lat="49.900452" lon="7.837780">
        <ele>217.181277</ele>
        <time>2020-06-23T07:28:13.704Z</time>
      </trkpt>
      <trkpt lat="49.900452" lon="7.837618">
        <ele>216.297216</ele>
        <time>2020-06-23T07:28:19.701Z</time>
      </trkpt>
      <trkpt lat="49.900455" lon="7.837472">
        <ele>215.338100</ele>
        <time>2020-06-23T07:28:25.692Z</time>
      </trkpt>
      <trkpt lat="49.900459" lon="7.837303">
        <ele>214.227706</ele>
        <time>2020-06-23T07:28:31.686Z</time>
      </trkpt>
      <trkpt lat="49.900455" lon="7.837158">
        <ele>213.274771</ele>
        <time>2020-06-23T07:28:37.687Z</time>
      </trkpt>
      <trkpt lat="49.900431" lon="7.836999">
        <ele>212.202503</ele>
        <time>2020-06-23T07:28:44.692Z</time>
      </trkpt>
      <trkpt lat="49.900394" lon="7.836849">
        <ele>211.147861</ele>
        <time>2020-06-23T07:28:50.712Z</time>
      </trkpt>
      <trkpt lat="49.900342" lon="7.836707">
        <ele>210.075348</ele>
        <time>2020-06-23T07:28:56.709Z</time>
      </trkpt>
      <trkpt lat="49.900272" lon="7.836590">
        <ele>209.026861</ele>
        <time>2020-06-23T07:29:02.704Z</time>
      </trkpt>
      <trkpt lat="49.900198" lon="7.836476">
        <ele>207.964173</ele>
        <time>2020-06-23T07:29:09.702Z</time>
      </trkpt>
      <trkpt lat="49.900127" lon="7.836374">
        <ele>206.978091</ele>
        <time>2020-06-23T07:29:15.700Z</time>
      </trkpt>
      <trkpt lat="49.900061" lon="7.836263">
        <ele>205.986211</ele>
        <time>2020-06-23T07:29:21.712Z</time>
      </trkpt>
      <trkpt lat="49.899994" lon="7.836163">
        <ele>205.038802</ele>
        <time>2020-06-23T07:29:28.714Z</time>
      </trkpt>
      <trkpt lat="49.899918" lon="7.836057">
        <ele>203.997357</ele>
        <time>2020-06-23T07:29:35.712Z</time>
      </trkpt>
      <trkpt lat="49.899861" lon="7.835946">
        <ele>203.065263</ele>
        <time>2020-06-23T07:29:41.708Z</time>
      </trkpt>
      <trkpt lat="49.899800" lon="7.835833">
        <ele>202.097191</ele>
        <time>2020-06-23T07:29:48.695Z</time>
      </trkpt>
      <trkpt lat="49.899745" lon="7.835719">
        <ele>201.161976</ele>
        <time>2020-06-23T07:29:54.703Z</time>
      </trkpt>
      <trkpt lat="49.899684" lon="7.835599">
        <ele>200.158242</ele>
        <time>2020-06-23T07:30:00.713Z</time>
      </trkpt>
      <trkpt lat="49.899609" lon="7.835482">
        <ele>199.074416</ele>
        <time>2020-06-23T07:30:07.712Z</time>
      </trkpt>
      <trkpt lat="49.899550" lon="7.835370">
        <ele>198.489589</ele>
        <time>2020-06-23T07:30:12.710Z</time>
      </trkpt>
      <trkpt lat="49.899500" lon="7.835255">
        <ele>198.405670</ele>
        <time>2020-06-23T07:30:18.706Z</time>
      </trkpt>
      <trkpt lat="49.899445" lon="7.835123">
        <ele>198.310584</ele>
        <time>2020-06-23T07:30:24.720Z</time>
      </trkpt>
      <trkpt lat="49.899384" lon="7.835019">
        <ele>198.225510</ele>
        <time>2020-06-23T07:30:32.712Z</time>
      </trkpt>
      <trkpt lat="49.899342" lon="7.834893">
        <ele>198.139700</ele>
        <time>2020-06-23T07:30:40.694Z</time>
      </trkpt>
      <trkpt lat="49.899277" lon="7.834776">
        <ele>198.046249</ele>
        <time>2020-06-23T07:30:53.719Z</time>
      </trkpt>
      <trkpt lat="49.899241" lon="7.834635">
        <ele>197.954512</ele>
        <time>2020-06-23T07:31:00.722Z</time>
      </trkpt>
      <trkpt lat="49.899204" lon="7.834494">
        <ele>197.862424</ele>
        <time>2020-06-23T07:31:05.709Z</time>
      </trkpt>
      <trkpt lat="49.899155" lon="7.834370">
        <ele>197.774435</ele>
        <time>2020-06-23T07:31:11.727Z</time>
      </trkpt>
      <trkpt lat="49.899106" lon="7.834251">
        <ele>197.689009</ele>
        <time>2020-06-23T07:31:17.714Z</time>
      </trkpt>
      <trkpt lat="49.899044" lon="7.834147">
        <ele>197.603299</ele>
        <time>2020-06-23T07:31:23.710Z</time>
      </trkpt>
      <trkpt lat="49.898977" lon="7.834032">
        <ele>197.509511</ele>
        <time>2020-06-23T07:31:30.717Z</time>
      </trkpt>
      <trkpt lat="49.898893" lon="7.833978">
        <ele>197.424141</ele>
        <time>2020-06-23T07:31:38.718Z</time>
      </trkpt>
      <trkpt lat="49.898831" lon="7.834092">
        <ele>197.333898</ele>
        <time>2020-06-23T07:31:44.715Z</time>
      </trkpt>
      <trkpt lat="49.898758" lon="7.834183">
        <ele>197.245988</ele>
        <time>2020-06-23T07:31:50.715Z</time>
      </trkpt>
      <trkpt lat="49.898680" lon="7.834263">
        <ele>197.158206</ele>
        <time>2020-06-23T07:31:56.714Z</time>
      </trkpt>
      <trkpt lat="49.898614" lon="7.834360">
        <ele>197.072865</ele>
        <time>2020-06-23T07:32:01.701Z</time>
      </trkpt>
      <trkpt lat="49.898579" lon="7.834514">
        <ele>196.974091</ele>
        <time>2020-06-23T07:32:08.719Z</time>
      </trkpt>
      <trkpt lat="49.898631" lon="7.834658">
        <ele>196.874240</ele>
        <time>2020-06-23T07:32:14.711Z</time>
      </trkpt>
      <trkpt lat="49.898674" lon="7.834793">
        <ele>196.837720</ele>
        <time>2020-06-23T07:32:20.702Z</time>
      </trkpt>
      <trkpt lat="49.898679" lon="7.834944">
        <ele>196.837720</ele>
        <time>2020-06-23T07:32:26.715Z</time>
      </trkpt>
      <trkpt lat="49.898628" lon="7.835088">
        <ele>196.837720</ele>
        <time>2020-06-23T07:32:32.714Z</time>
      </trkpt>
      <trkpt lat="49.898535" lon="7.835133">
        <ele>196.837720</ele>
        <time>2020-06-23T07:32:37.712Z</time>
      </trkpt>
      <trkpt lat="49.898430" lon="7.835174">
        <ele>196.837720</ele>
        <time>2020-06-23T07:32:44.704Z</time>
      </trkpt>
      <trkpt lat="49.898331" lon="7.835217">
        <ele>196.837720</ele>
        <time>2020-06-23T07:32:49.710Z</time>
      </trkpt>
      <trkpt lat="49.898245" lon="7.835298">
        <ele>196.837720</ele>
        <time>2020-06-23T07:32:55.708Z</time>
      </trkpt>
      <trkpt lat="49.898146" lon="7.835342">
        <ele>196.837720</ele>
        <time>2020-06-23T07:33:03.712Z</time>
      </trkpt>
      <trkpt lat="49.898054" lon="7.835369">
        <ele>196.837720</ele>
        <time>2020-06-23T07:33:09.716Z</time>
      </trkpt>
      <trkpt lat="49.897971" lon="7.835427">
        <ele>196.837720</ele>
        <time>2020-06-23T07:33:14.710Z</time>
      </trkpt>
      <trkpt lat="49.897888" lon="7.835494">
        <ele>196.837720</ele>
        <time>2020-06-23T07:33:20.714Z</time>
      </trkpt>
      <trkpt lat="49.897795" lon="7.835514">
        <ele>196.837720</ele>
        <time>2020-06-23T07:33:26.703Z</time>
      </trkpt>
      <trkpt lat="49.897703" lon="7.835539">
        <ele>196.837720</ele>
        <time>2020-06-23T07:33:32.713Z</time>
      </trkpt>
      <trkpt lat="49.897610" lon="7.835586">
        <ele>196.837720</ele>
        <time>2020-06-23T07:33:38.711Z</time>
      </trkpt>
      <trkpt lat="49.897513" lon="7.835648">
        <ele>196.837720</ele>
        <time>2020-06-23T07:33:44.702Z</time>
      </trkpt>
      <trkpt lat="49.897429" lon="7.835707">
        <ele>196.837720</ele>
        <time>2020-06-23T07:33:51.714Z</time>
      </trkpt>
      <trkpt lat="49.897329" lon="7.835711">
        <ele>196.837720</ele>
        <time>2020-06-23T07:33:57.706Z</time>
      </trkpt>
      <trkpt lat="49.897255" lon="7.835791">
        <ele>196.837720</ele>
        <time>2020-06-23T07:34:03.717Z</time>
      </trkpt>
      <trkpt lat="49.897159" lon="7.835857">
        <ele>196.837720</ele>
        <time>2020-06-23T07:34:10.702Z</time>
      </trkpt>
      <trkpt lat="49.897151" lon="7.836005">
        <ele>196.837720</ele>
        <time>2020-06-23T07:34:20.711Z</time>
      </trkpt>
      <trkpt lat="49.897159" lon="7.836152">
        <ele>196.837720</ele>
        <time>2020-06-23T07:34:28.714Z</time>
      </trkpt>
      <trkpt lat="49.897188" lon="7.836296">
        <ele>196.837720</ele>
        <time>2020-06-23T07:34:39.700Z</time>
      </trkpt>
      <trkpt lat="49.897253" lon="7.836417">
        <ele>196.837720</ele>
        <time>2020-06-23T07:34:45.723Z</time>
      </trkpt>
      <trkpt lat="49.897294" lon="7.836550">
        <ele>196.837720</ele>
        <time>2020-06-23T07:34:51.722Z</time>
      </trkpt>
      <trkpt lat="49.897347" lon="7.836675">
        <ele>196.837720</ele>
        <time>2020-06-23T07:34:57.720Z</time>
      </trkpt>
    </trkseg>
  </trk>
</gpx>